<?xml version="1.0" encoding="UTF-8" standalone="no" ?>
<gpx xmlns="http://www.topografix.com/GPX/1/1" xmlns:xsi="http://www.w3.org/2001/XMLSchema-instance" xsi:schemaLocation="http://www.topografix.com/GPX/1/1 http://www.topografix.com/GPX/1/1/gpx.xsd" version="1.1" creator="VisuGPX - https://www.visugpx.com">
  <metadata>
    <name>Fleckenstein</name>
    <desc><![CDATA[Export from GpsPrune]]></desc>
  </metadata>
  <trk>
    <name><![CDATA[GpsPruneTrack]]></name>
    <trkseg>
      <trkpt lat="49.0316" lon="7.77019">
        <ele>206.689</ele>
        <time>2020-05-24T09:42:37Z</time>
      </trkpt>
      <trkpt lat="49.0315" lon="7.77012">
        <ele>207.824</ele>
        <time>2020-05-24T09:42:54Z</time>
      </trkpt>
      <trkpt lat="49.03144" lon="7.77008">
        <ele>208.489</ele>
        <time>2020-05-24T09:43:00Z</time>
      </trkpt>
      <trkpt lat="49.03142" lon="7.76992">
        <ele>208.437</ele>
        <time>2020-05-24T09:43:11Z</time>
      </trkpt>
      <trkpt lat="49.0314" lon="7.76976">
        <ele>208.026</ele>
        <time>2020-05-24T09:43:22Z</time>
      </trkpt>
      <trkpt lat="49.03144" lon="7.76964">
        <ele>207.188</ele>
        <time>2020-05-24T09:43:33Z</time>
      </trkpt>
      <trkpt lat="49.03153" lon="7.7695">
        <ele>205.695</ele>
        <time>2020-05-24T09:43:50Z</time>
      </trkpt>
      <trkpt lat="49.0316" lon="7.76947">
        <ele>204.846</ele>
        <time>2020-05-24T09:43:56Z</time>
      </trkpt>
      <trkpt lat="49.03177" lon="7.7695">
        <ele>203.473</ele>
        <time>2020-05-24T09:44:08Z</time>
      </trkpt>
      <trkpt lat="49.03184" lon="7.76953">
        <ele>203.076</ele>
        <time>2020-05-24T09:44:13Z</time>
      </trkpt>
      <trkpt lat="49.0319" lon="7.76955">
        <ele>202.695</ele>
        <time>2020-05-24T09:44:19Z</time>
      </trkpt>
      <trkpt lat="49.03198" lon="7.76956">
        <ele>202.314</ele>
        <time>2020-05-24T09:44:30Z</time>
      </trkpt>
      <trkpt lat="49.03208" lon="7.76957">
        <ele>201.947</ele>
        <time>2020-05-24T09:44:41Z</time>
      </trkpt>
      <trkpt lat="49.0322" lon="7.76963">
        <ele>201.772</ele>
        <time>2020-05-24T09:45:16Z</time>
      </trkpt>
      <trkpt lat="49.03225" lon="7.7697">
        <ele>202.025</ele>
        <time>2020-05-24T09:45:27Z</time>
      </trkpt>
      <trkpt lat="49.03232" lon="7.76972">
        <ele>202.343</ele>
        <time>2020-05-24T09:45:39Z</time>
      </trkpt>
      <trkpt lat="49.03241" lon="7.76973">
        <ele>202.78</ele>
        <time>2020-05-24T09:45:56Z</time>
      </trkpt>
      <trkpt lat="49.03251" lon="7.76968">
        <ele>202.914</ele>
        <time>2020-05-24T09:46:02Z</time>
      </trkpt>
      <trkpt lat="49.03259" lon="7.76965">
        <ele>203.07</ele>
        <time>2020-05-24T09:46:13Z</time>
      </trkpt>
      <trkpt lat="49.03269" lon="7.76968">
        <ele>203.513</ele>
        <time>2020-05-24T09:46:19Z</time>
      </trkpt>
      <trkpt lat="49.03284" lon="7.76971">
        <ele>204.408</ele>
        <time>2020-05-24T09:46:30Z</time>
      </trkpt>
      <trkpt lat="49.03293" lon="7.76972">
        <ele>205.095</ele>
        <time>2020-05-24T09:46:40Z</time>
      </trkpt>
      <trkpt lat="49.03306" lon="7.76969">
        <ele>205.841</ele>
        <time>2020-05-24T09:46:52Z</time>
      </trkpt>
      <trkpt lat="49.03317" lon="7.76962">
        <ele>206.348</ele>
        <time>2020-05-24T09:47:03Z</time>
      </trkpt>
      <trkpt lat="49.03326" lon="7.76966">
        <ele>207.559</ele>
        <time>2020-05-24T09:47:15Z</time>
      </trkpt>
      <trkpt lat="49.03338" lon="7.76966">
        <ele>208.684</ele>
        <time>2020-05-24T09:47:27Z</time>
      </trkpt>
      <trkpt lat="49.03343" lon="7.76961">
        <ele>208.504</ele>
        <time>2020-05-24T09:47:32Z</time>
      </trkpt>
      <trkpt lat="49.03354" lon="7.76956">
        <ele>208.753</ele>
        <time>2020-05-24T09:47:49Z</time>
      </trkpt>
      <trkpt lat="49.03366" lon="7.76956">
        <ele>209.625</ele>
        <time>2020-05-24T09:48:00Z</time>
      </trkpt>
      <trkpt lat="49.03371" lon="7.76948">
        <ele>209.155</ele>
        <time>2020-05-24T09:48:06Z</time>
      </trkpt>
      <trkpt lat="49.03383" lon="7.76945">
        <ele>209.699</ele>
        <time>2020-05-24T09:48:17Z</time>
      </trkpt>
      <trkpt lat="49.03394" lon="7.76945">
        <ele>210.314</ele>
        <time>2020-05-24T09:48:29Z</time>
      </trkpt>
      <trkpt lat="49.03399" lon="7.76941">
        <ele>209.772</ele>
        <time>2020-05-24T09:48:35Z</time>
      </trkpt>
      <trkpt lat="49.03407" lon="7.76939">
        <ele>209.641</ele>
        <time>2020-05-24T09:48:41Z</time>
      </trkpt>
      <trkpt lat="49.03414" lon="7.76941">
        <ele>210.292</ele>
        <time>2020-05-24T09:48:47Z</time>
      </trkpt>
      <trkpt lat="49.03427" lon="7.76942">
        <ele>212.49</ele>
        <time>2020-05-24T09:48:59Z</time>
      </trkpt>
      <trkpt lat="49.03436" lon="7.76938">
        <ele>213.452</ele>
        <time>2020-05-24T09:49:10Z</time>
      </trkpt>
      <trkpt lat="49.03443" lon="7.76945">
        <ele>216.847</ele>
        <time>2020-05-24T09:49:15Z</time>
      </trkpt>
      <trkpt lat="49.03453" lon="7.76942">
        <ele>217.127</ele>
        <time>2020-05-24T09:49:26Z</time>
      </trkpt>
      <trkpt lat="49.03459" lon="7.76934">
        <ele>215.479</ele>
        <time>2020-05-24T09:49:32Z</time>
      </trkpt>
      <trkpt lat="49.03468" lon="7.76931">
        <ele>215.136</ele>
        <time>2020-05-24T09:49:38Z</time>
      </trkpt>
      <trkpt lat="49.03478" lon="7.76934">
        <ele>217.252</ele>
        <time>2020-05-24T09:49:44Z</time>
      </trkpt>
      <trkpt lat="49.03488" lon="7.76933">
        <ele>217.584</ele>
        <time>2020-05-24T09:49:55Z</time>
      </trkpt>
      <trkpt lat="49.03496" lon="7.76937">
        <ele>219.535</ele>
        <time>2020-05-24T09:50:01Z</time>
      </trkpt>
      <trkpt lat="49.03506" lon="7.76933">
        <ele>219.21</ele>
        <time>2020-05-24T09:50:11Z</time>
      </trkpt>
      <trkpt lat="49.03513" lon="7.76929">
        <ele>218.613</ele>
        <time>2020-05-24T09:50:17Z</time>
      </trkpt>
      <trkpt lat="49.03525" lon="7.76931">
        <ele>220.306</ele>
        <time>2020-05-24T09:50:28Z</time>
      </trkpt>
      <trkpt lat="49.03531" lon="7.76934">
        <ele>221.485</ele>
        <time>2020-05-24T09:50:34Z</time>
      </trkpt>
      <trkpt lat="49.0354" lon="7.76936">
        <ele>222.497</ele>
        <time>2020-05-24T09:50:40Z</time>
      </trkpt>
      <trkpt lat="49.03552" lon="7.76935">
        <ele>223.218</ele>
        <time>2020-05-24T09:50:51Z</time>
      </trkpt>
      <trkpt lat="49.03559" lon="7.7694">
        <ele>224.998</ele>
        <time>2020-05-24T09:50:57Z</time>
      </trkpt>
      <trkpt lat="49.03573" lon="7.76935">
        <ele>224.484</ele>
        <time>2020-05-24T09:51:13Z</time>
      </trkpt>
      <trkpt lat="49.03584" lon="7.76925">
        <ele>222.384</ele>
        <time>2020-05-24T09:51:23Z</time>
      </trkpt>
      <trkpt lat="49.03592" lon="7.7692">
        <ele>221.154</ele>
        <time>2020-05-24T09:51:29Z</time>
      </trkpt>
      <trkpt lat="49.036" lon="7.76919">
        <ele>221.34</ele>
        <time>2020-05-24T09:51:34Z</time>
      </trkpt>
      <trkpt lat="49.03607" lon="7.76915">
        <ele>220.536</ele>
        <time>2020-05-24T09:51:40Z</time>
      </trkpt>
      <trkpt lat="49.03614" lon="7.76912">
        <ele>219.9</ele>
        <time>2020-05-24T09:51:50Z</time>
      </trkpt>
      <trkpt lat="49.03628" lon="7.76912">
        <ele>220.51</ele>
        <time>2020-05-24T09:52:01Z</time>
      </trkpt>
      <trkpt lat="49.03637" lon="7.76908">
        <ele>220.116</ele>
        <time>2020-05-24T09:52:07Z</time>
      </trkpt>
      <trkpt lat="49.03644" lon="7.76914">
        <ele>221.807</ele>
        <time>2020-05-24T09:52:12Z</time>
      </trkpt>
      <trkpt lat="49.03652" lon="7.76919">
        <ele>223.444</ele>
        <time>2020-05-24T09:52:18Z</time>
      </trkpt>
      <trkpt lat="49.03665" lon="7.76919">
        <ele>224.211</ele>
        <time>2020-05-24T09:52:29Z</time>
      </trkpt>
      <trkpt lat="49.03678" lon="7.7692">
        <ele>223.975</ele>
        <time>2020-05-24T09:52:40Z</time>
      </trkpt>
      <trkpt lat="49.03684" lon="7.76925">
        <ele>224.444</ele>
        <time>2020-05-24T09:52:46Z</time>
      </trkpt>
      <trkpt lat="49.03691" lon="7.76944">
        <ele>226.225</ele>
        <time>2020-05-24T09:52:52Z</time>
      </trkpt>
      <trkpt lat="49.03697" lon="7.7696">
        <ele>227.812</ele>
        <time>2020-05-24T09:52:58Z</time>
      </trkpt>
      <trkpt lat="49.03704" lon="7.76978">
        <ele>228.838</ele>
        <time>2020-05-24T09:53:09Z</time>
      </trkpt>
      <trkpt lat="49.03709" lon="7.76989">
        <ele>229.256</ele>
        <time>2020-05-24T09:53:15Z</time>
      </trkpt>
      <trkpt lat="49.03713" lon="7.76999">
        <ele>229.557</ele>
        <time>2020-05-24T09:53:21Z</time>
      </trkpt>
      <trkpt lat="49.03723" lon="7.77038">
        <ele>231.265</ele>
        <time>2020-05-24T09:55:15Z</time>
      </trkpt>
      <trkpt lat="49.03725" lon="7.76986">
        <ele>225.923</ele>
        <time>2020-05-24T09:55:50Z</time>
      </trkpt>
      <trkpt lat="49.03738" lon="7.76895">
        <ele>219.113</ele>
        <time>2020-05-24T09:56:52Z</time>
      </trkpt>
      <trkpt lat="49.0374" lon="7.7687">
        <ele>216.538</ele>
        <time>2020-05-24T09:57:13Z</time>
      </trkpt>
      <trkpt lat="49.03732" lon="7.76846">
        <ele>214.86</ele>
        <time>2020-05-24T09:57:31Z</time>
      </trkpt>
      <trkpt lat="49.03729" lon="7.76837">
        <ele>213.825</ele>
        <time>2020-05-24T09:58:01Z</time>
      </trkpt>
      <trkpt lat="49.03726" lon="7.76822">
        <ele>211.688</ele>
        <time>2020-05-24T09:58:41Z</time>
      </trkpt>
      <trkpt lat="49.03726" lon="7.76806">
        <ele>208.987</ele>
        <time>2020-05-24T09:58:57Z</time>
      </trkpt>
      <trkpt lat="49.03728" lon="7.76796">
        <ele>207.829</ele>
        <time>2020-05-24T09:59:03Z</time>
      </trkpt>
      <trkpt lat="49.03732" lon="7.76787">
        <ele>206.88</ele>
        <time>2020-05-24T09:59:19Z</time>
      </trkpt>
      <trkpt lat="49.03735" lon="7.76775">
        <ele>205.891</ele>
        <time>2020-05-24T09:59:25Z</time>
      </trkpt>
      <trkpt lat="49.0374" lon="7.7677">
        <ele>205.802</ele>
        <time>2020-05-24T09:59:31Z</time>
      </trkpt>
      <trkpt lat="49.03746" lon="7.76766">
        <ele>205.881</ele>
        <time>2020-05-24T09:59:36Z</time>
      </trkpt>
      <trkpt lat="49.03757" lon="7.76762">
        <ele>206.573</ele>
        <time>2020-05-24T09:59:48Z</time>
      </trkpt>
      <trkpt lat="49.03767" lon="7.76758">
        <ele>207.377</ele>
        <time>2020-05-24T09:59:59Z</time>
      </trkpt>
      <trkpt lat="49.03772" lon="7.76762">
        <ele>207.926</ele>
        <time>2020-05-24T10:00:05Z</time>
      </trkpt>
      <trkpt lat="49.03776" lon="7.7677">
        <ele>208.556</ele>
        <time>2020-05-24T10:00:28Z</time>
      </trkpt>
      <trkpt lat="49.0378" lon="7.76779">
        <ele>209.327</ele>
        <time>2020-05-24T10:00:34Z</time>
      </trkpt>
      <trkpt lat="49.03784" lon="7.76793">
        <ele>210.209</ele>
        <time>2020-05-24T10:00:45Z</time>
      </trkpt>
      <trkpt lat="49.03793" lon="7.768">
        <ele>212.398</ele>
        <time>2020-05-24T10:01:26Z</time>
      </trkpt>
      <trkpt lat="49.03799" lon="7.76808">
        <ele>214.436</ele>
        <time>2020-05-24T10:01:32Z</time>
      </trkpt>
      <trkpt lat="49.03802" lon="7.76816">
        <ele>215.516</ele>
        <time>2020-05-24T10:01:38Z</time>
      </trkpt>
      <trkpt lat="49.03809" lon="7.76824">
        <ele>217.519</ele>
        <time>2020-05-24T10:01:50Z</time>
      </trkpt>
      <trkpt lat="49.03815" lon="7.7683">
        <ele>219.101</ele>
        <time>2020-05-24T10:02:01Z</time>
      </trkpt>
      <trkpt lat="49.0382" lon="7.76842">
        <ele>220.464</ele>
        <time>2020-05-24T10:02:13Z</time>
      </trkpt>
      <trkpt lat="49.03828" lon="7.76849">
        <ele>222.645</ele>
        <time>2020-05-24T10:02:24Z</time>
      </trkpt>
      <trkpt lat="49.03837" lon="7.76852">
        <ele>224.724</ele>
        <time>2020-05-24T10:02:35Z</time>
      </trkpt>
      <trkpt lat="49.03844" lon="7.76847">
        <ele>225.971</ele>
        <time>2020-05-24T10:02:46Z</time>
      </trkpt>
      <trkpt lat="49.03854" lon="7.76848">
        <ele>227.814</ele>
        <time>2020-05-24T10:02:57Z</time>
      </trkpt>
      <trkpt lat="49.03863" lon="7.76852">
        <ele>229.59</ele>
        <time>2020-05-24T10:03:08Z</time>
      </trkpt>
      <trkpt lat="49.03868" lon="7.76859">
        <ele>231.018</ele>
        <time>2020-05-24T10:03:20Z</time>
      </trkpt>
      <trkpt lat="49.03872" lon="7.76864">
        <ele>232.106</ele>
        <time>2020-05-24T10:03:26Z</time>
      </trkpt>
      <trkpt lat="49.0388" lon="7.76862">
        <ele>233.478</ele>
        <time>2020-05-24T10:03:37Z</time>
      </trkpt>
      <trkpt lat="49.03885" lon="7.76856">
        <ele>233.828</ele>
        <time>2020-05-24T10:03:42Z</time>
      </trkpt>
      <trkpt lat="49.03894" lon="7.76853">
        <ele>234.973</ele>
        <time>2020-05-24T10:03:53Z</time>
      </trkpt>
      <trkpt lat="49.03906" lon="7.76853">
        <ele>236.837</ele>
        <time>2020-05-24T10:04:05Z</time>
      </trkpt>
      <trkpt lat="49.03916" lon="7.76851">
        <ele>238.171</ele>
        <time>2020-05-24T10:04:15Z</time>
      </trkpt>
      <trkpt lat="49.03926" lon="7.76846">
        <ele>240.191</ele>
        <time>2020-05-24T10:04:27Z</time>
      </trkpt>
      <trkpt lat="49.03932" lon="7.76843">
        <ele>241.493</ele>
        <time>2020-05-24T10:04:33Z</time>
      </trkpt>
      <trkpt lat="49.03943" lon="7.76836">
        <ele>243.001</ele>
        <time>2020-05-24T10:04:45Z</time>
      </trkpt>
      <trkpt lat="49.0395" lon="7.76833">
        <ele>244.176</ele>
        <time>2020-05-24T10:05:02Z</time>
      </trkpt>
      <trkpt lat="49.03955" lon="7.76827">
        <ele>244.777</ele>
        <time>2020-05-24T10:05:19Z</time>
      </trkpt>
      <trkpt lat="49.03962" lon="7.76823">
        <ele>245.84</ele>
        <time>2020-05-24T10:05:36Z</time>
      </trkpt>
      <trkpt lat="49.03966" lon="7.76817">
        <ele>246.053</ele>
        <time>2020-05-24T10:05:42Z</time>
      </trkpt>
      <trkpt lat="49.03972" lon="7.7681">
        <ele>246.549</ele>
        <time>2020-05-24T10:05:48Z</time>
      </trkpt>
      <trkpt lat="49.03982" lon="7.76803">
        <ele>247.952</ele>
        <time>2020-05-24T10:05:59Z</time>
      </trkpt>
      <trkpt lat="49.03996" lon="7.76805">
        <ele>251.105</ele>
        <time>2020-05-24T10:06:11Z</time>
      </trkpt>
      <trkpt lat="49.04008" lon="7.7681">
        <ele>252.886</ele>
        <time>2020-05-24T10:06:21Z</time>
      </trkpt>
      <trkpt lat="49.04011" lon="7.76818">
        <ele>254.343</ele>
        <time>2020-05-24T10:06:49Z</time>
      </trkpt>
      <trkpt lat="49.04019" lon="7.76824">
        <ele>255.794</ele>
        <time>2020-05-24T10:06:59Z</time>
      </trkpt>
      <trkpt lat="49.04025" lon="7.76836">
        <ele>258.32</ele>
        <time>2020-05-24T10:07:05Z</time>
      </trkpt>
      <trkpt lat="49.04031" lon="7.76844">
        <ele>259.543</ele>
        <time>2020-05-24T10:07:10Z</time>
      </trkpt>
      <trkpt lat="49.04042" lon="7.76852">
        <ele>260.109</ele>
        <time>2020-05-24T10:07:22Z</time>
      </trkpt>
      <trkpt lat="49.04048" lon="7.76858">
        <ele>260.891</ele>
        <time>2020-05-24T10:07:32Z</time>
      </trkpt>
      <trkpt lat="49.04053" lon="7.76864">
        <ele>261.653</ele>
        <time>2020-05-24T10:07:37Z</time>
      </trkpt>
      <trkpt lat="49.04058" lon="7.76873">
        <ele>262.834</ele>
        <time>2020-05-24T10:07:43Z</time>
      </trkpt>
      <trkpt lat="49.04063" lon="7.76878">
        <ele>263.21</ele>
        <time>2020-05-24T10:07:48Z</time>
      </trkpt>
      <trkpt lat="49.04067" lon="7.76885">
        <ele>263.938</ele>
        <time>2020-05-24T10:07:53Z</time>
      </trkpt>
      <trkpt lat="49.04072" lon="7.76892">
        <ele>264.811</ele>
        <time>2020-05-24T10:08:04Z</time>
      </trkpt>
      <trkpt lat="49.04078" lon="7.76898">
        <ele>265.241</ele>
        <time>2020-05-24T10:08:15Z</time>
      </trkpt>
      <trkpt lat="49.04083" lon="7.76906">
        <ele>266.011</ele>
        <time>2020-05-24T10:08:21Z</time>
      </trkpt>
      <trkpt lat="49.04088" lon="7.76913">
        <ele>266.888</ele>
        <time>2020-05-24T10:08:26Z</time>
      </trkpt>
      <trkpt lat="49.04094" lon="7.76919">
        <ele>267.313</ele>
        <time>2020-05-24T10:08:31Z</time>
      </trkpt>
      <trkpt lat="49.041" lon="7.76926">
        <ele>267.957</ele>
        <time>2020-05-24T10:08:42Z</time>
      </trkpt>
      <trkpt lat="49.04104" lon="7.76936">
        <ele>269.406</ele>
        <time>2020-05-24T10:08:48Z</time>
      </trkpt>
      <trkpt lat="49.04111" lon="7.76949">
        <ele>270.786</ele>
        <time>2020-05-24T10:08:54Z</time>
      </trkpt>
      <trkpt lat="49.04117" lon="7.76957">
        <ele>271.674</ele>
        <time>2020-05-24T10:09:06Z</time>
      </trkpt>
      <trkpt lat="49.04119" lon="7.76968">
        <ele>273.429</ele>
        <time>2020-05-24T10:09:12Z</time>
      </trkpt>
      <trkpt lat="49.04123" lon="7.76973">
        <ele>273.888</ele>
        <time>2020-05-24T10:09:29Z</time>
      </trkpt>
      <trkpt lat="49.04126" lon="7.76981">
        <ele>274.966</ele>
        <time>2020-05-24T10:09:40Z</time>
      </trkpt>
      <trkpt lat="49.0413" lon="7.76995">
        <ele>277.069</ele>
        <time>2020-05-24T10:10:19Z</time>
      </trkpt>
      <trkpt lat="49.04135" lon="7.77006">
        <ele>278.247</ele>
        <time>2020-05-24T10:10:25Z</time>
      </trkpt>
      <trkpt lat="49.04139" lon="7.77017">
        <ele>279.489</ele>
        <time>2020-05-24T10:10:31Z</time>
      </trkpt>
      <trkpt lat="49.04143" lon="7.77024">
        <ele>280.181</ele>
        <time>2020-05-24T10:10:37Z</time>
      </trkpt>
      <trkpt lat="49.04148" lon="7.7703">
        <ele>280.902</ele>
        <time>2020-05-24T10:10:43Z</time>
      </trkpt>
      <trkpt lat="49.04152" lon="7.77038">
        <ele>282.011</ele>
        <time>2020-05-24T10:10:49Z</time>
      </trkpt>
      <trkpt lat="49.04159" lon="7.77044">
        <ele>282.551</ele>
        <time>2020-05-24T10:10:55Z</time>
      </trkpt>
      <trkpt lat="49.0417" lon="7.77055">
        <ele>283.566</ele>
        <time>2020-05-24T10:11:07Z</time>
      </trkpt>
      <trkpt lat="49.04176" lon="7.77068">
        <ele>284.979</ele>
        <time>2020-05-24T10:11:18Z</time>
      </trkpt>
      <trkpt lat="49.04184" lon="7.77075">
        <ele>285.448</ele>
        <time>2020-05-24T10:11:28Z</time>
      </trkpt>
      <trkpt lat="49.04188" lon="7.77087">
        <ele>287.187</ele>
        <time>2020-05-24T10:11:40Z</time>
      </trkpt>
      <trkpt lat="49.04197" lon="7.77097">
        <ele>288.288</ele>
        <time>2020-05-24T10:11:51Z</time>
      </trkpt>
      <trkpt lat="49.04205" lon="7.7711">
        <ele>290.392</ele>
        <time>2020-05-24T10:11:57Z</time>
      </trkpt>
      <trkpt lat="49.04215" lon="7.77121">
        <ele>292.336</ele>
        <time>2020-05-24T10:12:07Z</time>
      </trkpt>
      <trkpt lat="49.0422" lon="7.77128">
        <ele>293.74</ele>
        <time>2020-05-24T10:12:13Z</time>
      </trkpt>
      <trkpt lat="49.04225" lon="7.77134">
        <ele>294.916</ele>
        <time>2020-05-24T10:12:24Z</time>
      </trkpt>
      <trkpt lat="49.04236" lon="7.7714">
        <ele>295.717</ele>
        <time>2020-05-24T10:12:40Z</time>
      </trkpt>
      <trkpt lat="49.04242" lon="7.77144">
        <ele>296.03</ele>
        <time>2020-05-24T10:12:46Z</time>
      </trkpt>
      <trkpt lat="49.04247" lon="7.77152">
        <ele>296.931</ele>
        <time>2020-05-24T10:12:51Z</time>
      </trkpt>
      <trkpt lat="49.04253" lon="7.77162">
        <ele>298.619</ele>
        <time>2020-05-24T10:12:57Z</time>
      </trkpt>
      <trkpt lat="49.04258" lon="7.7717">
        <ele>299.88</ele>
        <time>2020-05-24T10:13:03Z</time>
      </trkpt>
      <trkpt lat="49.04264" lon="7.77176">
        <ele>300.901</ele>
        <time>2020-05-24T10:13:08Z</time>
      </trkpt>
      <trkpt lat="49.04269" lon="7.77184">
        <ele>301.794</ele>
        <time>2020-05-24T10:13:13Z</time>
      </trkpt>
      <trkpt lat="49.04273" lon="7.77191">
        <ele>302.504</ele>
        <time>2020-05-24T10:13:19Z</time>
      </trkpt>
      <trkpt lat="49.04279" lon="7.77198">
        <ele>303.349</ele>
        <time>2020-05-24T10:13:30Z</time>
      </trkpt>
      <trkpt lat="49.04288" lon="7.77206">
        <ele>305.007</ele>
        <time>2020-05-24T10:13:59Z</time>
      </trkpt>
      <trkpt lat="49.04292" lon="7.77213">
        <ele>305.716</ele>
        <time>2020-05-24T10:14:10Z</time>
      </trkpt>
      <trkpt lat="49.04298" lon="7.7722">
        <ele>306.435</ele>
        <time>2020-05-24T10:14:21Z</time>
      </trkpt>
      <trkpt lat="49.04304" lon="7.77228">
        <ele>307.288</ele>
        <time>2020-05-24T10:14:33Z</time>
      </trkpt>
      <trkpt lat="49.0431" lon="7.77233">
        <ele>308.506</ele>
        <time>2020-05-24T10:14:39Z</time>
      </trkpt>
      <trkpt lat="49.04317" lon="7.77238">
        <ele>309.976</ele>
        <time>2020-05-24T10:14:50Z</time>
      </trkpt>
      <trkpt lat="49.04323" lon="7.77242">
        <ele>310.874</ele>
        <time>2020-05-24T10:14:56Z</time>
      </trkpt>
      <trkpt lat="49.04329" lon="7.77253">
        <ele>311.585</ele>
        <time>2020-05-24T10:15:07Z</time>
      </trkpt>
      <trkpt lat="49.04338" lon="7.77256">
        <ele>312.9</ele>
        <time>2020-05-24T10:15:19Z</time>
      </trkpt>
      <trkpt lat="49.04343" lon="7.77262">
        <ele>313.843</ele>
        <time>2020-05-24T10:15:35Z</time>
      </trkpt>
      <trkpt lat="49.04348" lon="7.77268">
        <ele>314.752</ele>
        <time>2020-05-24T10:15:40Z</time>
      </trkpt>
      <trkpt lat="49.04355" lon="7.77271">
        <ele>316.178</ele>
        <time>2020-05-24T10:15:46Z</time>
      </trkpt>
      <trkpt lat="49.04363" lon="7.77273">
        <ele>317.531</ele>
        <time>2020-05-24T10:15:52Z</time>
      </trkpt>
      <trkpt lat="49.04372" lon="7.7727">
        <ele>319.371</ele>
        <time>2020-05-24T10:16:02Z</time>
      </trkpt>
      <trkpt lat="49.04378" lon="7.77273">
        <ele>320.412</ele>
        <time>2020-05-24T10:16:08Z</time>
      </trkpt>
      <trkpt lat="49.04387" lon="7.77277">
        <ele>321.772</ele>
        <time>2020-05-24T10:16:19Z</time>
      </trkpt>
      <trkpt lat="49.04397" lon="7.77284">
        <ele>323.723</ele>
        <time>2020-05-24T10:16:42Z</time>
      </trkpt>
      <trkpt lat="49.04405" lon="7.77288">
        <ele>325.432</ele>
        <time>2020-05-24T10:16:53Z</time>
      </trkpt>
      <trkpt lat="49.04414" lon="7.77291">
        <ele>327.331</ele>
        <time>2020-05-24T10:16:59Z</time>
      </trkpt>
      <trkpt lat="49.04424" lon="7.77303">
        <ele>328.566</ele>
        <time>2020-05-24T10:17:43Z</time>
      </trkpt>
      <trkpt lat="49.04414" lon="7.77287">
        <ele>327.627</ele>
        <time>2020-05-24T10:18:57Z</time>
      </trkpt>
      <trkpt lat="49.04411" lon="7.77278">
        <ele>327.503</ele>
        <time>2020-05-24T10:19:03Z</time>
      </trkpt>
      <trkpt lat="49.04409" lon="7.77265">
        <ele>328.039</ele>
        <time>2020-05-24T10:19:13Z</time>
      </trkpt>
      <trkpt lat="49.04403" lon="7.77255">
        <ele>327.599</ele>
        <time>2020-05-24T10:19:30Z</time>
      </trkpt>
      <trkpt lat="49.04395" lon="7.77253">
        <ele>326.101</ele>
        <time>2020-05-24T10:19:35Z</time>
      </trkpt>
      <trkpt lat="49.0439" lon="7.77247">
        <ele>325.385</ele>
        <time>2020-05-24T10:19:41Z</time>
      </trkpt>
      <trkpt lat="49.04388" lon="7.77235">
        <ele>325.244</ele>
        <time>2020-05-24T10:19:52Z</time>
      </trkpt>
      <trkpt lat="49.04384" lon="7.77228">
        <ele>324.568</ele>
        <time>2020-05-24T10:19:58Z</time>
      </trkpt>
      <trkpt lat="49.04387" lon="7.77219">
        <ele>325.712</ele>
        <time>2020-05-24T10:20:09Z</time>
      </trkpt>
      <trkpt lat="49.04389" lon="7.77208">
        <ele>326.427</ele>
        <time>2020-05-24T10:20:15Z</time>
      </trkpt>
      <trkpt lat="49.04391" lon="7.77196">
        <ele>327.421</ele>
        <time>2020-05-24T10:20:21Z</time>
      </trkpt>
      <trkpt lat="49.04395" lon="7.77187">
        <ele>328.633</ele>
        <time>2020-05-24T10:20:26Z</time>
      </trkpt>
      <trkpt lat="49.04398" lon="7.77176">
        <ele>329.731</ele>
        <time>2020-05-24T10:20:32Z</time>
      </trkpt>
      <trkpt lat="49.04394" lon="7.77159">
        <ele>328.426</ele>
        <time>2020-05-24T10:20:42Z</time>
      </trkpt>
      <trkpt lat="49.04398" lon="7.77151">
        <ele>329.549</ele>
        <time>2020-05-24T10:20:48Z</time>
      </trkpt>
      <trkpt lat="49.04401" lon="7.77135">
        <ele>330.474</ele>
        <time>2020-05-24T10:20:59Z</time>
      </trkpt>
      <trkpt lat="49.04405" lon="7.77127">
        <ele>331.536</ele>
        <time>2020-05-24T10:21:04Z</time>
      </trkpt>
      <trkpt lat="49.04408" lon="7.77117">
        <ele>332.415</ele>
        <time>2020-05-24T10:21:09Z</time>
      </trkpt>
      <trkpt lat="49.04412" lon="7.77107">
        <ele>333.329</ele>
        <time>2020-05-24T10:21:14Z</time>
      </trkpt>
      <trkpt lat="49.04415" lon="7.77099">
        <ele>333.684</ele>
        <time>2020-05-24T10:21:19Z</time>
      </trkpt>
      <trkpt lat="49.04416" lon="7.77088">
        <ele>333.187</ele>
        <time>2020-05-24T10:21:25Z</time>
      </trkpt>
      <trkpt lat="49.04422" lon="7.77074">
        <ele>333.914</ele>
        <time>2020-05-24T10:21:35Z</time>
      </trkpt>
      <trkpt lat="49.04421" lon="7.77062">
        <ele>332.628</ele>
        <time>2020-05-24T10:21:40Z</time>
      </trkpt>
      <trkpt lat="49.04423" lon="7.77052">
        <ele>332.081</ele>
        <time>2020-05-24T10:21:46Z</time>
      </trkpt>
      <trkpt lat="49.04426" lon="7.77041">
        <ele>331.603</ele>
        <time>2020-05-24T10:21:51Z</time>
      </trkpt>
      <trkpt lat="49.04427" lon="7.77031">
        <ele>330.749</ele>
        <time>2020-05-24T10:21:57Z</time>
      </trkpt>
      <trkpt lat="49.04427" lon="7.77016">
        <ele>329.473</ele>
        <time>2020-05-24T10:22:07Z</time>
      </trkpt>
      <trkpt lat="49.04429" lon="7.77006">
        <ele>328.885</ele>
        <time>2020-05-24T10:22:13Z</time>
      </trkpt>
      <trkpt lat="49.0443" lon="7.76994">
        <ele>327.924</ele>
        <time>2020-05-24T10:22:29Z</time>
      </trkpt>
      <trkpt lat="49.04436" lon="7.76986">
        <ele>327.728</ele>
        <time>2020-05-24T10:22:41Z</time>
      </trkpt>
      <trkpt lat="49.04441" lon="7.76981">
        <ele>327.713</ele>
        <time>2020-05-24T10:22:46Z</time>
      </trkpt>
      <trkpt lat="49.04448" lon="7.76973">
        <ele>326.983</ele>
        <time>2020-05-24T10:22:52Z</time>
      </trkpt>
      <trkpt lat="49.04454" lon="7.76964">
        <ele>325.741</ele>
        <time>2020-05-24T10:23:04Z</time>
      </trkpt>
      <trkpt lat="49.04443" lon="7.76967">
        <ele>326.39</ele>
        <time>2020-05-24T10:23:39Z</time>
      </trkpt>
      <trkpt lat="49.04439" lon="7.76978">
        <ele>327.253</ele>
        <time>2020-05-24T10:23:50Z</time>
      </trkpt>
      <trkpt lat="49.04433" lon="7.76975">
        <ele>326.397</ele>
        <time>2020-05-24T10:23:57Z</time>
      </trkpt>
      <trkpt lat="49.04439" lon="7.76989">
        <ele>328.321</ele>
        <time>2020-05-24T10:24:25Z</time>
      </trkpt>
      <trkpt lat="49.04443" lon="7.76997">
        <ele>329.505</ele>
        <time>2020-05-24T10:24:30Z</time>
      </trkpt>
      <trkpt lat="49.04441" lon="7.76979">
        <ele>327.384</ele>
        <time>2020-05-24T10:25:03Z</time>
      </trkpt>
      <trkpt lat="49.04446" lon="7.76969">
        <ele>326.556</ele>
        <time>2020-05-24T10:25:14Z</time>
      </trkpt>
      <trkpt lat="49.04449" lon="7.76954">
        <ele>324.867</ele>
        <time>2020-05-24T10:26:05Z</time>
      </trkpt>
      <trkpt lat="49.04459" lon="7.76943">
        <ele>323.273</ele>
        <time>2020-05-24T10:26:22Z</time>
      </trkpt>
      <trkpt lat="49.04468" lon="7.76952">
        <ele>323.905</ele>
        <time>2020-05-24T10:26:39Z</time>
      </trkpt>
      <trkpt lat="49.04471" lon="7.76959">
        <ele>324.653</ele>
        <time>2020-05-24T10:27:25Z</time>
      </trkpt>
      <trkpt lat="49.04482" lon="7.76958">
        <ele>323.22</ele>
        <time>2020-05-24T10:28:01Z</time>
      </trkpt>
      <trkpt lat="49.0449" lon="7.7696">
        <ele>322.537</ele>
        <time>2020-05-24T10:28:06Z</time>
      </trkpt>
      <trkpt lat="49.04501" lon="7.76967">
        <ele>321.966</ele>
        <time>2020-05-24T10:28:28Z</time>
      </trkpt>
      <trkpt lat="49.0451" lon="7.7698">
        <ele>322.285</ele>
        <time>2020-05-24T10:28:34Z</time>
      </trkpt>
      <trkpt lat="49.04514" lon="7.76991">
        <ele>323.076</ele>
        <time>2020-05-24T10:28:40Z</time>
      </trkpt>
      <trkpt lat="49.04522" lon="7.77006">
        <ele>323.686</ele>
        <time>2020-05-24T10:28:46Z</time>
      </trkpt>
      <trkpt lat="49.0452" lon="7.77016">
        <ele>325.106</ele>
        <time>2020-05-24T10:28:52Z</time>
      </trkpt>
      <trkpt lat="49.04523" lon="7.77032">
        <ele>326.468</ele>
        <time>2020-05-24T10:29:03Z</time>
      </trkpt>
      <trkpt lat="49.0453" lon="7.7704">
        <ele>326.221</ele>
        <time>2020-05-24T10:29:09Z</time>
      </trkpt>
      <trkpt lat="49.04537" lon="7.77052">
        <ele>326.461</ele>
        <time>2020-05-24T10:29:20Z</time>
      </trkpt>
      <trkpt lat="49.04549" lon="7.77064">
        <ele>325.783</ele>
        <time>2020-05-24T10:29:32Z</time>
      </trkpt>
      <trkpt lat="49.04558" lon="7.77072">
        <ele>324.798</ele>
        <time>2020-05-24T10:29:38Z</time>
      </trkpt>
      <trkpt lat="49.04564" lon="7.77076">
        <ele>323.541</ele>
        <time>2020-05-24T10:29:44Z</time>
      </trkpt>
      <trkpt lat="49.04571" lon="7.77084">
        <ele>322.762</ele>
        <time>2020-05-24T10:29:50Z</time>
      </trkpt>
      <trkpt lat="49.04575" lon="7.77095">
        <ele>323.022</ele>
        <time>2020-05-24T10:30:06Z</time>
      </trkpt>
      <trkpt lat="49.0458" lon="7.77105">
        <ele>322.848</ele>
        <time>2020-05-24T10:30:12Z</time>
      </trkpt>
      <trkpt lat="49.04585" lon="7.77112">
        <ele>322.696</ele>
        <time>2020-05-24T10:30:18Z</time>
      </trkpt>
      <trkpt lat="49.04591" lon="7.77117">
        <ele>321.452</ele>
        <time>2020-05-24T10:30:23Z</time>
      </trkpt>
      <trkpt lat="49.04593" lon="7.77128">
        <ele>322.025</ele>
        <time>2020-05-24T10:30:34Z</time>
      </trkpt>
      <trkpt lat="49.04603" lon="7.77134">
        <ele>319.946</ele>
        <time>2020-05-24T10:30:45Z</time>
      </trkpt>
      <trkpt lat="49.04604" lon="7.77146">
        <ele>320.978</ele>
        <time>2020-05-24T10:30:51Z</time>
      </trkpt>
      <trkpt lat="49.04605" lon="7.7716">
        <ele>322.776</ele>
        <time>2020-05-24T10:30:56Z</time>
      </trkpt>
      <trkpt lat="49.04612" lon="7.77172">
        <ele>322.396</ele>
        <time>2020-05-24T10:31:02Z</time>
      </trkpt>
      <trkpt lat="49.04617" lon="7.77181">
        <ele>321.887</ele>
        <time>2020-05-24T10:31:08Z</time>
      </trkpt>
      <trkpt lat="49.04616" lon="7.77197">
        <ele>323.978</ele>
        <time>2020-05-24T10:31:19Z</time>
      </trkpt>
      <trkpt lat="49.04613" lon="7.77204">
        <ele>325.622</ele>
        <time>2020-05-24T10:31:25Z</time>
      </trkpt>
      <trkpt lat="49.04615" lon="7.77218">
        <ele>326.738</ele>
        <time>2020-05-24T10:31:31Z</time>
      </trkpt>
      <trkpt lat="49.04617" lon="7.77239">
        <ele>328.665</ele>
        <time>2020-05-24T10:31:49Z</time>
      </trkpt>
      <trkpt lat="49.04619" lon="7.77253">
        <ele>329.425</ele>
        <time>2020-05-24T10:31:54Z</time>
      </trkpt>
      <trkpt lat="49.04626" lon="7.77262">
        <ele>328.812</ele>
        <time>2020-05-24T10:31:59Z</time>
      </trkpt>
      <trkpt lat="49.04632" lon="7.77274">
        <ele>328.921</ele>
        <time>2020-05-24T10:32:04Z</time>
      </trkpt>
      <trkpt lat="49.04636" lon="7.77281">
        <ele>328.655</ele>
        <time>2020-05-24T10:32:10Z</time>
      </trkpt>
      <trkpt lat="49.04642" lon="7.77293">
        <ele>328.629</ele>
        <time>2020-05-24T10:32:16Z</time>
      </trkpt>
      <trkpt lat="49.04647" lon="7.77302">
        <ele>328.566</ele>
        <time>2020-05-24T10:32:22Z</time>
      </trkpt>
      <trkpt lat="49.04657" lon="7.77317">
        <ele>328.997</ele>
        <time>2020-05-24T10:32:33Z</time>
      </trkpt>
      <trkpt lat="49.04666" lon="7.77321">
        <ele>328.367</ele>
        <time>2020-05-24T10:32:39Z</time>
      </trkpt>
      <trkpt lat="49.04672" lon="7.7733">
        <ele>328.653</ele>
        <time>2020-05-24T10:32:50Z</time>
      </trkpt>
      <trkpt lat="49.04676" lon="7.77337">
        <ele>329.121</ele>
        <time>2020-05-24T10:34:13Z</time>
      </trkpt>
      <trkpt lat="49.04681" lon="7.77352">
        <ele>330.283</ele>
        <time>2020-05-24T10:34:29Z</time>
      </trkpt>
      <trkpt lat="49.0467" lon="7.77372">
        <ele>333.484</ele>
        <time>2020-05-24T10:34:40Z</time>
      </trkpt>
      <trkpt lat="49.04668" lon="7.77386">
        <ele>334.749</ele>
        <time>2020-05-24T10:34:57Z</time>
      </trkpt>
      <trkpt lat="49.04659" lon="7.77419">
        <ele>335.6</ele>
        <time>2020-05-24T10:35:31Z</time>
      </trkpt>
      <trkpt lat="49.04651" lon="7.77409">
        <ele>335.479</ele>
        <time>2020-05-24T10:35:54Z</time>
      </trkpt>
      <trkpt lat="49.04644" lon="7.77402">
        <ele>335.521</ele>
        <time>2020-05-24T10:36:00Z</time>
      </trkpt>
      <trkpt lat="49.04635" lon="7.77396">
        <ele>335.356</ele>
        <time>2020-05-24T10:36:11Z</time>
      </trkpt>
      <trkpt lat="49.04629" lon="7.7739">
        <ele>335.225</ele>
        <time>2020-05-24T10:36:17Z</time>
      </trkpt>
      <trkpt lat="49.04622" lon="7.77388">
        <ele>334.816</ele>
        <time>2020-05-24T10:36:23Z</time>
      </trkpt>
      <trkpt lat="49.04612" lon="7.77382">
        <ele>334.527</ele>
        <time>2020-05-24T10:36:34Z</time>
      </trkpt>
      <trkpt lat="49.04609" lon="7.77374">
        <ele>334.931</ele>
        <time>2020-05-24T10:36:40Z</time>
      </trkpt>
      <trkpt lat="49.04604" lon="7.77367">
        <ele>335.286</ele>
        <time>2020-05-24T10:36:46Z</time>
      </trkpt>
      <trkpt lat="49.04598" lon="7.7736">
        <ele>335.556</ele>
        <time>2020-05-24T10:36:56Z</time>
      </trkpt>
      <trkpt lat="49.04593" lon="7.77354">
        <ele>335.511</ele>
        <time>2020-05-24T10:37:02Z</time>
      </trkpt>
      <trkpt lat="49.04587" lon="7.77351">
        <ele>335.459</ele>
        <time>2020-05-24T10:37:08Z</time>
      </trkpt>
      <trkpt lat="49.04571" lon="7.77349">
        <ele>335.545</ele>
        <time>2020-05-24T10:37:25Z</time>
      </trkpt>
      <trkpt lat="49.04567" lon="7.77343">
        <ele>336.199</ele>
        <time>2020-05-24T10:37:37Z</time>
      </trkpt>
      <trkpt lat="49.04562" lon="7.77334">
        <ele>337.479</ele>
        <time>2020-05-24T10:37:54Z</time>
      </trkpt>
      <trkpt lat="49.04557" lon="7.77323">
        <ele>338.967</ele>
        <time>2020-05-24T10:38:40Z</time>
      </trkpt>
      <trkpt lat="49.04542" lon="7.77295">
        <ele>343.036</ele>
        <time>2020-05-24T10:39:43Z</time>
      </trkpt>
      <trkpt lat="49.04536" lon="7.77287">
        <ele>344.667</ele>
        <time>2020-05-24T10:39:49Z</time>
      </trkpt>
      <trkpt lat="49.04539" lon="7.77279">
        <ele>345.502</ele>
        <time>2020-05-24T10:39:54Z</time>
      </trkpt>
      <trkpt lat="49.04544" lon="7.7727">
        <ele>346.014</ele>
        <time>2020-05-24T10:40:00Z</time>
      </trkpt>
      <trkpt lat="49.04544" lon="7.77255">
        <ele>347.414</ele>
        <time>2020-05-24T10:40:10Z</time>
      </trkpt>
      <trkpt lat="49.04534" lon="7.77229">
        <ele>350.233</ele>
        <time>2020-05-24T10:40:27Z</time>
      </trkpt>
      <trkpt lat="49.04526" lon="7.77217">
        <ele>352.471</ele>
        <time>2020-05-24T10:40:33Z</time>
      </trkpt>
      <trkpt lat="49.04532" lon="7.77205">
        <ele>350.107</ele>
        <time>2020-05-24T10:40:39Z</time>
      </trkpt>
      <trkpt lat="49.04526" lon="7.77197">
        <ele>351.905</ele>
        <time>2020-05-24T10:41:12Z</time>
      </trkpt>
      <trkpt lat="49.04523" lon="7.77187">
        <ele>351.869</ele>
        <time>2020-05-24T10:41:17Z</time>
      </trkpt>
      <trkpt lat="49.04515" lon="7.77176">
        <ele>352.876</ele>
        <time>2020-05-24T10:41:23Z</time>
      </trkpt>
      <trkpt lat="49.0451" lon="7.7717">
        <ele>353.616</ele>
        <time>2020-05-24T10:41:29Z</time>
      </trkpt>
      <trkpt lat="49.04513" lon="7.77156">
        <ele>350.717</ele>
        <time>2020-05-24T10:42:08Z</time>
      </trkpt>
      <trkpt lat="49.04521" lon="7.7717">
        <ele>350.235</ele>
        <time>2020-05-24T10:43:17Z</time>
      </trkpt>
      <trkpt lat="49.04528" lon="7.77181">
        <ele>349.408</ele>
        <time>2020-05-24T10:43:22Z</time>
      </trkpt>
      <trkpt lat="49.04537" lon="7.77192">
        <ele>347.552</ele>
        <time>2020-05-24T10:43:27Z</time>
      </trkpt>
      <trkpt lat="49.04546" lon="7.77207">
        <ele>345.496</ele>
        <time>2020-05-24T10:43:33Z</time>
      </trkpt>
      <trkpt lat="49.04547" lon="7.77224">
        <ele>346.533</ele>
        <time>2020-05-24T10:43:39Z</time>
      </trkpt>
      <trkpt lat="49.04546" lon="7.77236">
        <ele>347.146</ele>
        <time>2020-05-24T10:43:45Z</time>
      </trkpt>
      <trkpt lat="49.04539" lon="7.77245">
        <ele>349.03</ele>
        <time>2020-05-24T10:45:05Z</time>
      </trkpt>
      <trkpt lat="49.04541" lon="7.77255">
        <ele>348.109</ele>
        <time>2020-05-24T10:47:31Z</time>
      </trkpt>
      <trkpt lat="49.04543" lon="7.77275">
        <ele>345.624</ele>
        <time>2020-05-24T10:47:42Z</time>
      </trkpt>
      <trkpt lat="49.0455" lon="7.77285">
        <ele>343.706</ele>
        <time>2020-05-24T10:47:48Z</time>
      </trkpt>
      <trkpt lat="49.04554" lon="7.77293">
        <ele>342.513</ele>
        <time>2020-05-24T10:47:53Z</time>
      </trkpt>
      <trkpt lat="49.04562" lon="7.77296">
        <ele>340.958</ele>
        <time>2020-05-24T10:47:59Z</time>
      </trkpt>
      <trkpt lat="49.04567" lon="7.77307">
        <ele>339.263</ele>
        <time>2020-05-24T10:48:16Z</time>
      </trkpt>
      <trkpt lat="49.04571" lon="7.77325">
        <ele>337.458</ele>
        <time>2020-05-24T10:49:02Z</time>
      </trkpt>
      <trkpt lat="49.04575" lon="7.77332">
        <ele>336.69</ele>
        <time>2020-05-24T10:49:08Z</time>
      </trkpt>
      <trkpt lat="49.04579" lon="7.77338">
        <ele>336.021</ele>
        <time>2020-05-24T10:49:19Z</time>
      </trkpt>
      <trkpt lat="49.04592" lon="7.77341">
        <ele>335.809</ele>
        <time>2020-05-24T10:49:30Z</time>
      </trkpt>
      <trkpt lat="49.04599" lon="7.77344">
        <ele>335.833</ele>
        <time>2020-05-24T10:49:36Z</time>
      </trkpt>
      <trkpt lat="49.04607" lon="7.77351">
        <ele>335.897</ele>
        <time>2020-05-24T10:49:47Z</time>
      </trkpt>
      <trkpt lat="49.04616" lon="7.77355">
        <ele>335.721</ele>
        <time>2020-05-24T10:49:53Z</time>
      </trkpt>
      <trkpt lat="49.04624" lon="7.77359">
        <ele>335.479</ele>
        <time>2020-05-24T10:49:59Z</time>
      </trkpt>
      <trkpt lat="49.04627" lon="7.77373">
        <ele>335.308</ele>
        <time>2020-05-24T10:50:10Z</time>
      </trkpt>
      <trkpt lat="49.04635" lon="7.7738">
        <ele>335.534</ele>
        <time>2020-05-24T10:50:16Z</time>
      </trkpt>
      <trkpt lat="49.04642" lon="7.77393">
        <ele>335.765</ele>
        <time>2020-05-24T10:50:27Z</time>
      </trkpt>
      <trkpt lat="49.04647" lon="7.77399">
        <ele>335.557</ele>
        <time>2020-05-24T10:50:33Z</time>
      </trkpt>
      <trkpt lat="49.04653" lon="7.77406">
        <ele>335.502</ele>
        <time>2020-05-24T10:50:44Z</time>
      </trkpt>
      <trkpt lat="49.0466" lon="7.77391">
        <ele>335.292</ele>
        <time>2020-05-24T10:51:18Z</time>
      </trkpt>
      <trkpt lat="49.04656" lon="7.77378">
        <ele>334.772</ele>
        <time>2020-05-24T10:51:23Z</time>
      </trkpt>
      <trkpt lat="49.04665" lon="7.77374">
        <ele>334.048</ele>
        <time>2020-05-24T10:51:35Z</time>
      </trkpt>
      <trkpt lat="49.04675" lon="7.77375">
        <ele>333.361</ele>
        <time>2020-05-24T10:51:41Z</time>
      </trkpt>
      <trkpt lat="49.04682" lon="7.77372">
        <ele>332.578</ele>
        <time>2020-05-24T10:51:46Z</time>
      </trkpt>
      <trkpt lat="49.04671" lon="7.77339">
        <ele>329.956</ele>
        <time>2020-05-24T10:52:20Z</time>
      </trkpt>
      <trkpt lat="49.04665" lon="7.77331">
        <ele>329.843</ele>
        <time>2020-05-24T10:52:26Z</time>
      </trkpt>
      <trkpt lat="49.04673" lon="7.7733">
        <ele>328.628</ele>
        <time>2020-05-24T10:52:31Z</time>
      </trkpt>
      <trkpt lat="49.04686" lon="7.77331">
        <ele>327.008</ele>
        <time>2020-05-24T10:52:37Z</time>
      </trkpt>
      <trkpt lat="49.04705" lon="7.77331">
        <ele>324.91</ele>
        <time>2020-05-24T10:52:43Z</time>
      </trkpt>
      <trkpt lat="49.04713" lon="7.77328">
        <ele>323.907</ele>
        <time>2020-05-24T10:52:48Z</time>
      </trkpt>
      <trkpt lat="49.04718" lon="7.77337">
        <ele>324.816</ele>
        <time>2020-05-24T10:53:10Z</time>
      </trkpt>
      <trkpt lat="49.04721" lon="7.77348">
        <ele>326.188</ele>
        <time>2020-05-24T10:53:15Z</time>
      </trkpt>
      <trkpt lat="49.04729" lon="7.77358">
        <ele>327.452</ele>
        <time>2020-05-24T10:53:21Z</time>
      </trkpt>
      <trkpt lat="49.04741" lon="7.77368">
        <ele>328.86</ele>
        <time>2020-05-24T10:53:27Z</time>
      </trkpt>
      <trkpt lat="49.04744" lon="7.77377">
        <ele>329.862</ele>
        <time>2020-05-24T10:53:33Z</time>
      </trkpt>
      <trkpt lat="49.0475" lon="7.7739">
        <ele>331.248</ele>
        <time>2020-05-24T10:53:39Z</time>
      </trkpt>
      <trkpt lat="49.04755" lon="7.77403">
        <ele>333.978</ele>
        <time>2020-05-24T10:53:44Z</time>
      </trkpt>
      <trkpt lat="49.04758" lon="7.77416">
        <ele>336.729</ele>
        <time>2020-05-24T10:53:50Z</time>
      </trkpt>
      <trkpt lat="49.04756" lon="7.77431">
        <ele>338.949</ele>
        <time>2020-05-24T10:54:00Z</time>
      </trkpt>
      <trkpt lat="49.04747" lon="7.77439">
        <ele>338.963</ele>
        <time>2020-05-24T10:54:06Z</time>
      </trkpt>
      <trkpt lat="49.04752" lon="7.77453">
        <ele>341.056</ele>
        <time>2020-05-24T10:55:37Z</time>
      </trkpt>
      <trkpt lat="49.04755" lon="7.77465">
        <ele>342.363</ele>
        <time>2020-05-24T10:55:43Z</time>
      </trkpt>
      <trkpt lat="49.0476" lon="7.77482">
        <ele>345.283</ele>
        <time>2020-05-24T10:56:37Z</time>
      </trkpt>
      <trkpt lat="49.04763" lon="7.77492">
        <ele>347.287</ele>
        <time>2020-05-24T10:57:26Z</time>
      </trkpt>
      <trkpt lat="49.04767" lon="7.775">
        <ele>349.576</ele>
        <time>2020-05-24T10:57:32Z</time>
      </trkpt>
      <trkpt lat="49.04775" lon="7.77505">
        <ele>353.299</ele>
        <time>2020-05-24T10:57:43Z</time>
      </trkpt>
      <trkpt lat="49.04786" lon="7.77504">
        <ele>356.924</ele>
        <time>2020-05-24T10:58:11Z</time>
      </trkpt>
      <trkpt lat="49.04801" lon="7.77508">
        <ele>362.273</ele>
        <time>2020-05-24T10:58:29Z</time>
      </trkpt>
      <trkpt lat="49.04807" lon="7.77514">
        <ele>365.338</ele>
        <time>2020-05-24T10:58:35Z</time>
      </trkpt>
      <trkpt lat="49.04818" lon="7.77518">
        <ele>368.762</ele>
        <time>2020-05-24T10:59:14Z</time>
      </trkpt>
      <trkpt lat="49.04825" lon="7.77521">
        <ele>371.617</ele>
        <time>2020-05-24T10:59:24Z</time>
      </trkpt>
      <trkpt lat="49.0483" lon="7.77529">
        <ele>376.35</ele>
        <time>2020-05-24T10:59:30Z</time>
      </trkpt>
      <trkpt lat="49.04836" lon="7.77525">
        <ele>375.349</ele>
        <time>2020-05-24T10:59:52Z</time>
      </trkpt>
      <trkpt lat="49.04846" lon="7.77537">
        <ele>378.111</ele>
        <time>2020-05-24T11:00:21Z</time>
      </trkpt>
      <trkpt lat="49.04852" lon="7.7755">
        <ele>381.75</ele>
        <time>2020-05-24T11:00:27Z</time>
      </trkpt>
      <trkpt lat="49.04857" lon="7.77558">
        <ele>382.823</ele>
        <time>2020-05-24T11:00:32Z</time>
      </trkpt>
      <trkpt lat="49.04852" lon="7.77566">
        <ele>382.132</ele>
        <time>2020-05-24T11:00:37Z</time>
      </trkpt>
      <trkpt lat="49.04844" lon="7.77563">
        <ele>382.85</ele>
        <time>2020-05-24T11:00:49Z</time>
      </trkpt>
      <trkpt lat="49.04838" lon="7.77559">
        <ele>385.15</ele>
        <time>2020-05-24T11:01:07Z</time>
      </trkpt>
      <trkpt lat="49.04833" lon="7.77554">
        <ele>387.065</ele>
        <time>2020-05-24T11:01:18Z</time>
      </trkpt>
      <trkpt lat="49.04826" lon="7.77551">
        <ele>381.543</ele>
        <time>2020-05-24T11:01:29Z</time>
      </trkpt>
      <trkpt lat="49.04836" lon="7.7755">
        <ele>385.245</ele>
        <time>2020-05-24T11:07:00Z</time>
      </trkpt>
      <trkpt lat="49.04844" lon="7.77555">
        <ele>385.421</ele>
        <time>2020-05-24T11:07:12Z</time>
      </trkpt>
      <trkpt lat="49.04853" lon="7.77559">
        <ele>383.203</ele>
        <time>2020-05-24T11:07:24Z</time>
      </trkpt>
      <trkpt lat="49.0486" lon="7.77562">
        <ele>382.322</ele>
        <time>2020-05-24T11:07:36Z</time>
      </trkpt>
      <trkpt lat="49.04867" lon="7.77571">
        <ele>383.332</ele>
        <time>2020-05-24T11:07:58Z</time>
      </trkpt>
      <trkpt lat="49.04873" lon="7.77574">
        <ele>384.79</ele>
        <time>2020-05-24T11:08:25Z</time>
      </trkpt>
      <trkpt lat="49.04885" lon="7.77574">
        <ele>387.041</ele>
        <time>2020-05-24T11:09:39Z</time>
      </trkpt>
      <trkpt lat="49.04892" lon="7.77569">
        <ele>386.068</ele>
        <time>2020-05-24T11:09:44Z</time>
      </trkpt>
      <trkpt lat="49.04904" lon="7.77568">
        <ele>385.826</ele>
        <time>2020-05-24T11:09:50Z</time>
      </trkpt>
      <trkpt lat="49.04915" lon="7.77574">
        <ele>388.763</ele>
        <time>2020-05-24T11:10:01Z</time>
      </trkpt>
      <trkpt lat="49.04922" lon="7.77581">
        <ele>391.382</ele>
        <time>2020-05-24T11:10:12Z</time>
      </trkpt>
      <trkpt lat="49.04929" lon="7.77591">
        <ele>395.508</ele>
        <time>2020-05-24T11:10:18Z</time>
      </trkpt>
      <trkpt lat="49.04933" lon="7.77601">
        <ele>400.097</ele>
        <time>2020-05-24T11:10:23Z</time>
      </trkpt>
      <trkpt lat="49.04939" lon="7.77612">
        <ele>404.555</ele>
        <time>2020-05-24T11:10:35Z</time>
      </trkpt>
      <trkpt lat="49.04935" lon="7.7762">
        <ele>401.928</ele>
        <time>2020-05-24T11:10:46Z</time>
      </trkpt>
      <trkpt lat="49.04943" lon="7.77633">
        <ele>399.874</ele>
        <time>2020-05-24T11:12:16Z</time>
      </trkpt>
      <trkpt lat="49.04947" lon="7.7764">
        <ele>399.292</ele>
        <time>2020-05-24T11:12:27Z</time>
      </trkpt>
      <trkpt lat="49.04961" lon="7.77646">
        <ele>402.454</ele>
        <time>2020-05-24T11:12:44Z</time>
      </trkpt>
      <trkpt lat="49.04956" lon="7.77639">
        <ele>402.294</ele>
        <time>2020-05-24T11:13:12Z</time>
      </trkpt>
      <trkpt lat="49.04953" lon="7.7763">
        <ele>401.84</ele>
        <time>2020-05-24T11:13:46Z</time>
      </trkpt>
      <trkpt lat="49.04946" lon="7.77624">
        <ele>402.181</ele>
        <time>2020-05-24T11:13:57Z</time>
      </trkpt>
      <trkpt lat="49.04956" lon="7.77626">
        <ele>402.024</ele>
        <time>2020-05-24T11:15:43Z</time>
      </trkpt>
      <trkpt lat="49.0496" lon="7.77632">
        <ele>402.808</ele>
        <time>2020-05-24T11:15:49Z</time>
      </trkpt>
      <trkpt lat="49.04972" lon="7.77637">
        <ele>406.326</ele>
        <time>2020-05-24T11:16:11Z</time>
      </trkpt>
      <trkpt lat="49.04977" lon="7.77643">
        <ele>406.075</ele>
        <time>2020-05-24T11:16:16Z</time>
      </trkpt>
      <trkpt lat="49.04987" lon="7.7765">
        <ele>405.668</ele>
        <time>2020-05-24T11:16:22Z</time>
      </trkpt>
      <trkpt lat="49.04993" lon="7.77657">
        <ele>406.768</ele>
        <time>2020-05-24T11:16:28Z</time>
      </trkpt>
      <trkpt lat="49.05" lon="7.77662">
        <ele>408.653</ele>
        <time>2020-05-24T11:16:33Z</time>
      </trkpt>
      <trkpt lat="49.05008" lon="7.7767">
        <ele>408.899</ele>
        <time>2020-05-24T11:16:39Z</time>
      </trkpt>
      <trkpt lat="49.05013" lon="7.77676">
        <ele>409.031</ele>
        <time>2020-05-24T11:16:44Z</time>
      </trkpt>
      <trkpt lat="49.05021" lon="7.77678">
        <ele>409.156</ele>
        <time>2020-05-24T11:16:50Z</time>
      </trkpt>
      <trkpt lat="49.05027" lon="7.77681">
        <ele>410.002</ele>
        <time>2020-05-24T11:17:12Z</time>
      </trkpt>
      <trkpt lat="49.05034" lon="7.77685">
        <ele>409.882</ele>
        <time>2020-05-24T11:17:18Z</time>
      </trkpt>
      <trkpt lat="49.05038" lon="7.77691">
        <ele>410.656</ele>
        <time>2020-05-24T11:17:23Z</time>
      </trkpt>
      <trkpt lat="49.05041" lon="7.77702">
        <ele>412.375</ele>
        <time>2020-05-24T11:17:34Z</time>
      </trkpt>
      <trkpt lat="49.05045" lon="7.77714">
        <ele>414.172</ele>
        <time>2020-05-24T11:18:07Z</time>
      </trkpt>
      <trkpt lat="49.05052" lon="7.77721">
        <ele>416.237</ele>
        <time>2020-05-24T11:18:18Z</time>
      </trkpt>
      <trkpt lat="49.05059" lon="7.77726">
        <ele>416.17</ele>
        <time>2020-05-24T11:18:29Z</time>
      </trkpt>
      <trkpt lat="49.05065" lon="7.77729">
        <ele>415.52</ele>
        <time>2020-05-24T11:18:40Z</time>
      </trkpt>
      <trkpt lat="49.0508" lon="7.77737">
        <ele>416.677</ele>
        <time>2020-05-24T11:18:57Z</time>
      </trkpt>
      <trkpt lat="49.05089" lon="7.7774">
        <ele>415.862</ele>
        <time>2020-05-24T11:19:03Z</time>
      </trkpt>
      <trkpt lat="49.05095" lon="7.77751">
        <ele>418.227</ele>
        <time>2020-05-24T11:19:08Z</time>
      </trkpt>
      <trkpt lat="49.05103" lon="7.77755">
        <ele>417.157</ele>
        <time>2020-05-24T11:19:14Z</time>
      </trkpt>
      <trkpt lat="49.05107" lon="7.77762">
        <ele>419.005</ele>
        <time>2020-05-24T11:19:19Z</time>
      </trkpt>
      <trkpt lat="49.05113" lon="7.77768">
        <ele>421.447</ele>
        <time>2020-05-24T11:19:36Z</time>
      </trkpt>
      <trkpt lat="49.05116" lon="7.77775">
        <ele>423.866</ele>
        <time>2020-05-24T11:19:42Z</time>
      </trkpt>
      <trkpt lat="49.05121" lon="7.7778">
        <ele>423.025</ele>
        <time>2020-05-24T11:19:47Z</time>
      </trkpt>
      <trkpt lat="49.05128" lon="7.77785">
        <ele>420.697</ele>
        <time>2020-05-24T11:19:53Z</time>
      </trkpt>
      <trkpt lat="49.05133" lon="7.77794">
        <ele>420.308</ele>
        <time>2020-05-24T11:19:58Z</time>
      </trkpt>
      <trkpt lat="49.0514" lon="7.77803">
        <ele>421.575</ele>
        <time>2020-05-24T11:20:15Z</time>
      </trkpt>
      <trkpt lat="49.05148" lon="7.77815">
        <ele>422.312</ele>
        <time>2020-05-24T11:20:21Z</time>
      </trkpt>
      <trkpt lat="49.05155" lon="7.77822">
        <ele>423.918</ele>
        <time>2020-05-24T11:20:27Z</time>
      </trkpt>
      <trkpt lat="49.05165" lon="7.77829">
        <ele>427.652</ele>
        <time>2020-05-24T11:20:44Z</time>
      </trkpt>
      <trkpt lat="49.05175" lon="7.77835">
        <ele>428.947</ele>
        <time>2020-05-24T11:20:55Z</time>
      </trkpt>
      <trkpt lat="49.05184" lon="7.77845">
        <ele>429.592</ele>
        <time>2020-05-24T11:21:03Z</time>
      </trkpt>
      <trkpt lat="49.05191" lon="7.77851">
        <ele>431.03</ele>
        <time>2020-05-24T11:21:08Z</time>
      </trkpt>
      <trkpt lat="49.05196" lon="7.77858">
        <ele>432.567</ele>
        <time>2020-05-24T11:21:14Z</time>
      </trkpt>
      <trkpt lat="49.05205" lon="7.77865">
        <ele>432.822</ele>
        <time>2020-05-24T11:21:24Z</time>
      </trkpt>
      <trkpt lat="49.05213" lon="7.77863">
        <ele>433.08</ele>
        <time>2020-05-24T11:21:35Z</time>
      </trkpt>
      <trkpt lat="49.05223" lon="7.77871">
        <ele>434.717</ele>
        <time>2020-05-24T11:21:46Z</time>
      </trkpt>
      <trkpt lat="49.05233" lon="7.77882">
        <ele>436.857</ele>
        <time>2020-05-24T11:21:57Z</time>
      </trkpt>
      <trkpt lat="49.05237" lon="7.77888">
        <ele>438.331</ele>
        <time>2020-05-24T11:22:03Z</time>
      </trkpt>
      <trkpt lat="49.05242" lon="7.77896">
        <ele>438.898</ele>
        <time>2020-05-24T11:22:14Z</time>
      </trkpt>
      <trkpt lat="49.05248" lon="7.77907">
        <ele>440.922</ele>
        <time>2020-05-24T11:22:26Z</time>
      </trkpt>
      <trkpt lat="49.05255" lon="7.77908">
        <ele>442.147</ele>
        <time>2020-05-24T11:22:37Z</time>
      </trkpt>
      <trkpt lat="49.05265" lon="7.77911">
        <ele>443.722</ele>
        <time>2020-05-24T11:22:49Z</time>
      </trkpt>
      <trkpt lat="49.05273" lon="7.77914">
        <ele>445.58</ele>
        <time>2020-05-24T11:23:00Z</time>
      </trkpt>
      <trkpt lat="49.05276" lon="7.77923">
        <ele>446.71</ele>
        <time>2020-05-24T11:23:05Z</time>
      </trkpt>
      <trkpt lat="49.0528" lon="7.77931">
        <ele>447.006</ele>
        <time>2020-05-24T11:23:11Z</time>
      </trkpt>
      <trkpt lat="49.05284" lon="7.77939">
        <ele>447.757</ele>
        <time>2020-05-24T11:23:16Z</time>
      </trkpt>
      <trkpt lat="49.05289" lon="7.77947">
        <ele>448.74</ele>
        <time>2020-05-24T11:23:27Z</time>
      </trkpt>
      <trkpt lat="49.05294" lon="7.77954">
        <ele>449.023</ele>
        <time>2020-05-24T11:23:38Z</time>
      </trkpt>
      <trkpt lat="49.05303" lon="7.77962">
        <ele>450.976</ele>
        <time>2020-05-24T11:23:49Z</time>
      </trkpt>
      <trkpt lat="49.05314" lon="7.77966">
        <ele>452.361</ele>
        <time>2020-05-24T11:24:05Z</time>
      </trkpt>
      <trkpt lat="49.05325" lon="7.77973">
        <ele>454.043</ele>
        <time>2020-05-24T11:24:16Z</time>
      </trkpt>
      <trkpt lat="49.05331" lon="7.77978">
        <ele>454.832</ele>
        <time>2020-05-24T11:24:27Z</time>
      </trkpt>
      <trkpt lat="49.05337" lon="7.77983">
        <ele>455.105</ele>
        <time>2020-05-24T11:24:33Z</time>
      </trkpt>
      <trkpt lat="49.05343" lon="7.77991">
        <ele>455.877</ele>
        <time>2020-05-24T11:24:44Z</time>
      </trkpt>
      <trkpt lat="49.05353" lon="7.77995">
        <ele>456.934</ele>
        <time>2020-05-24T11:25:01Z</time>
      </trkpt>
      <trkpt lat="49.05358" lon="7.78">
        <ele>458.65</ele>
        <time>2020-05-24T11:25:07Z</time>
      </trkpt>
      <trkpt lat="49.05368" lon="7.78005">
        <ele>458.702</ele>
        <time>2020-05-24T11:25:18Z</time>
      </trkpt>
      <trkpt lat="49.05376" lon="7.78019">
        <ele>460.809</ele>
        <time>2020-05-24T11:25:29Z</time>
      </trkpt>
      <trkpt lat="49.05383" lon="7.78026">
        <ele>462.861</ele>
        <time>2020-05-24T11:25:45Z</time>
      </trkpt>
      <trkpt lat="49.05388" lon="7.78035">
        <ele>464.404</ele>
        <time>2020-05-24T11:25:50Z</time>
      </trkpt>
      <trkpt lat="49.05396" lon="7.78046">
        <ele>465.022</ele>
        <time>2020-05-24T11:25:56Z</time>
      </trkpt>
      <trkpt lat="49.05405" lon="7.78057">
        <ele>466.462</ele>
        <time>2020-05-24T11:26:07Z</time>
      </trkpt>
      <trkpt lat="49.05411" lon="7.78064">
        <ele>466.592</ele>
        <time>2020-05-24T11:26:12Z</time>
      </trkpt>
      <trkpt lat="49.05417" lon="7.78072">
        <ele>467.594</ele>
        <time>2020-05-24T11:26:23Z</time>
      </trkpt>
      <trkpt lat="49.05422" lon="7.78078">
        <ele>468.065</ele>
        <time>2020-05-24T11:26:29Z</time>
      </trkpt>
      <trkpt lat="49.05436" lon="7.78082">
        <ele>469.849</ele>
        <time>2020-05-24T11:30:04Z</time>
      </trkpt>
      <trkpt lat="49.05444" lon="7.78086">
        <ele>470.988</ele>
        <time>2020-05-24T11:30:15Z</time>
      </trkpt>
      <trkpt lat="49.0545" lon="7.78091">
        <ele>470.373</ele>
        <time>2020-05-24T11:30:21Z</time>
      </trkpt>
      <trkpt lat="49.05455" lon="7.78101">
        <ele>470.831</ele>
        <time>2020-05-24T11:30:27Z</time>
      </trkpt>
      <trkpt lat="49.05464" lon="7.78115">
        <ele>472.342</ele>
        <time>2020-05-24T11:30:56Z</time>
      </trkpt>
      <trkpt lat="49.05473" lon="7.78125">
        <ele>473.743</ele>
        <time>2020-05-24T11:31:02Z</time>
      </trkpt>
      <trkpt lat="49.05484" lon="7.78136">
        <ele>473.641</ele>
        <time>2020-05-24T11:31:13Z</time>
      </trkpt>
      <trkpt lat="49.05487" lon="7.78147">
        <ele>476</ele>
        <time>2020-05-24T11:31:24Z</time>
      </trkpt>
      <trkpt lat="49.05493" lon="7.7816">
        <ele>479.159</ele>
        <time>2020-05-24T11:31:35Z</time>
      </trkpt>
      <trkpt lat="49.05498" lon="7.78165">
        <ele>480.383</ele>
        <time>2020-05-24T11:31:40Z</time>
      </trkpt>
      <trkpt lat="49.05505" lon="7.78168">
        <ele>480.385</ele>
        <time>2020-05-24T11:31:45Z</time>
      </trkpt>
      <trkpt lat="49.05512" lon="7.78172">
        <ele>479.94</ele>
        <time>2020-05-24T11:31:51Z</time>
      </trkpt>
      <trkpt lat="49.05519" lon="7.7818">
        <ele>480.932</ele>
        <time>2020-05-24T11:32:01Z</time>
      </trkpt>
      <trkpt lat="49.05526" lon="7.78182">
        <ele>480.003</ele>
        <time>2020-05-24T11:32:07Z</time>
      </trkpt>
      <trkpt lat="49.05531" lon="7.78192">
        <ele>482.58</ele>
        <time>2020-05-24T11:32:18Z</time>
      </trkpt>
      <trkpt lat="49.05536" lon="7.78198">
        <ele>483.552</ele>
        <time>2020-05-24T11:32:24Z</time>
      </trkpt>
      <trkpt lat="49.05542" lon="7.78205">
        <ele>485.289</ele>
        <time>2020-05-24T11:32:30Z</time>
      </trkpt>
      <trkpt lat="49.05546" lon="7.78212">
        <ele>486.746</ele>
        <time>2020-05-24T11:32:35Z</time>
      </trkpt>
      <trkpt lat="49.05555" lon="7.7822">
        <ele>488.318</ele>
        <time>2020-05-24T11:32:41Z</time>
      </trkpt>
      <trkpt lat="49.05563" lon="7.78222">
        <ele>487.088</ele>
        <time>2020-05-24T11:32:52Z</time>
      </trkpt>
      <trkpt lat="49.05569" lon="7.78227">
        <ele>487.402</ele>
        <time>2020-05-24T11:32:58Z</time>
      </trkpt>
      <trkpt lat="49.05574" lon="7.78231">
        <ele>487.658</ele>
        <time>2020-05-24T11:33:09Z</time>
      </trkpt>
      <trkpt lat="49.05582" lon="7.7824">
        <ele>489.394</ele>
        <time>2020-05-24T11:33:20Z</time>
      </trkpt>
      <trkpt lat="49.05591" lon="7.78245">
        <ele>489.105</ele>
        <time>2020-05-24T11:33:26Z</time>
      </trkpt>
      <trkpt lat="49.05597" lon="7.7825">
        <ele>489.388</ele>
        <time>2020-05-24T11:33:32Z</time>
      </trkpt>
      <trkpt lat="49.05604" lon="7.78261">
        <ele>491.794</ele>
        <time>2020-05-24T11:33:49Z</time>
      </trkpt>
      <trkpt lat="49.05612" lon="7.78273">
        <ele>493.991</ele>
        <time>2020-05-24T11:33:55Z</time>
      </trkpt>
      <trkpt lat="49.05618" lon="7.78278">
        <ele>494.884</ele>
        <time>2020-05-24T11:34:00Z</time>
      </trkpt>
      <trkpt lat="49.05627" lon="7.78281">
        <ele>494.186</ele>
        <time>2020-05-24T11:34:06Z</time>
      </trkpt>
      <trkpt lat="49.05635" lon="7.78286">
        <ele>494.467</ele>
        <time>2020-05-24T11:34:12Z</time>
      </trkpt>
      <trkpt lat="49.05641" lon="7.7829">
        <ele>494.375</ele>
        <time>2020-05-24T11:34:17Z</time>
      </trkpt>
      <trkpt lat="49.05652" lon="7.78303">
        <ele>496.677</ele>
        <time>2020-05-24T11:34:28Z</time>
      </trkpt>
      <trkpt lat="49.05657" lon="7.78309">
        <ele>497.958</ele>
        <time>2020-05-24T11:34:34Z</time>
      </trkpt>
      <trkpt lat="49.05665" lon="7.7832">
        <ele>500.397</ele>
        <time>2020-05-24T11:34:45Z</time>
      </trkpt>
      <trkpt lat="49.05675" lon="7.78323">
        <ele>499.154</ele>
        <time>2020-05-24T11:34:57Z</time>
      </trkpt>
      <trkpt lat="49.05685" lon="7.7833">
        <ele>498.593</ele>
        <time>2020-05-24T11:35:09Z</time>
      </trkpt>
      <trkpt lat="49.0569" lon="7.78336">
        <ele>498.897</ele>
        <time>2020-05-24T11:35:42Z</time>
      </trkpt>
      <trkpt lat="49.05699" lon="7.78348">
        <ele>499.866</ele>
        <time>2020-05-24T11:35:59Z</time>
      </trkpt>
      <trkpt lat="49.05703" lon="7.78357">
        <ele>501.589</ele>
        <time>2020-05-24T11:36:04Z</time>
      </trkpt>
      <trkpt lat="49.05706" lon="7.78368">
        <ele>502.358</ele>
        <time>2020-05-24T11:36:10Z</time>
      </trkpt>
      <trkpt lat="49.05712" lon="7.78372">
        <ele>501.391</ele>
        <time>2020-05-24T11:36:20Z</time>
      </trkpt>
      <trkpt lat="49.05718" lon="7.78375">
        <ele>500.43</ele>
        <time>2020-05-24T11:36:26Z</time>
      </trkpt>
      <trkpt lat="49.05723" lon="7.78371">
        <ele>499.25</ele>
        <time>2020-05-24T11:36:32Z</time>
      </trkpt>
      <trkpt lat="49.05736" lon="7.78375">
        <ele>498.084</ele>
        <time>2020-05-24T11:36:43Z</time>
      </trkpt>
      <trkpt lat="49.05742" lon="7.78381">
        <ele>497.881</ele>
        <time>2020-05-24T11:36:49Z</time>
      </trkpt>
      <trkpt lat="49.05755" lon="7.78385">
        <ele>497.624</ele>
        <time>2020-05-24T11:37:00Z</time>
      </trkpt>
      <trkpt lat="49.05763" lon="7.78388">
        <ele>497.904</ele>
        <time>2020-05-24T11:37:06Z</time>
      </trkpt>
      <trkpt lat="49.05769" lon="7.78385">
        <ele>497.604</ele>
        <time>2020-05-24T11:37:12Z</time>
      </trkpt>
      <trkpt lat="49.05777" lon="7.78386">
        <ele>497.697</ele>
        <time>2020-05-24T11:37:17Z</time>
      </trkpt>
      <trkpt lat="49.05784" lon="7.78384">
        <ele>497.507</ele>
        <time>2020-05-24T11:37:23Z</time>
      </trkpt>
      <trkpt lat="49.05793" lon="7.78383">
        <ele>497.4</ele>
        <time>2020-05-24T11:37:29Z</time>
      </trkpt>
      <trkpt lat="49.05804" lon="7.78386">
        <ele>497.707</ele>
        <time>2020-05-24T11:37:40Z</time>
      </trkpt>
      <trkpt lat="49.05816" lon="7.78385">
        <ele>497.848</ele>
        <time>2020-05-24T11:37:51Z</time>
      </trkpt>
      <trkpt lat="49.05829" lon="7.7838">
        <ele>497.644</ele>
        <time>2020-05-24T11:38:03Z</time>
      </trkpt>
      <trkpt lat="49.05833" lon="7.78387">
        <ele>498.793</ele>
        <time>2020-05-24T11:38:08Z</time>
      </trkpt>
      <trkpt lat="49.05839" lon="7.78391">
        <ele>499.422</ele>
        <time>2020-05-24T11:38:31Z</time>
      </trkpt>
      <trkpt lat="49.05849" lon="7.7839">
        <ele>500.629</ele>
        <time>2020-05-24T11:40:10Z</time>
      </trkpt>
      <trkpt lat="49.05854" lon="7.78384">
        <ele>500.527</ele>
        <time>2020-05-24T11:40:15Z</time>
      </trkpt>
      <trkpt lat="49.05859" lon="7.78393">
        <ele>501.626</ele>
        <time>2020-05-24T11:40:21Z</time>
      </trkpt>
      <trkpt lat="49.05866" lon="7.78397">
        <ele>502.375</ele>
        <time>2020-05-24T11:40:38Z</time>
      </trkpt>
      <trkpt lat="49.05874" lon="7.78401">
        <ele>503.55</ele>
        <time>2020-05-24T11:40:49Z</time>
      </trkpt>
      <trkpt lat="49.05881" lon="7.78406">
        <ele>504.838</ele>
        <time>2020-05-24T11:40:55Z</time>
      </trkpt>
      <trkpt lat="49.05888" lon="7.78412">
        <ele>506.49</ele>
        <time>2020-05-24T11:41:12Z</time>
      </trkpt>
      <trkpt lat="49.05896" lon="7.78408">
        <ele>508.162</ele>
        <time>2020-05-24T11:41:23Z</time>
      </trkpt>
      <trkpt lat="49.05904" lon="7.78411">
        <ele>510.547</ele>
        <time>2020-05-24T11:41:40Z</time>
      </trkpt>
      <trkpt lat="49.05911" lon="7.78414">
        <ele>513.083</ele>
        <time>2020-05-24T11:41:51Z</time>
      </trkpt>
      <trkpt lat="49.05919" lon="7.78421">
        <ele>514.57</ele>
        <time>2020-05-24T11:42:02Z</time>
      </trkpt>
      <trkpt lat="49.05927" lon="7.78428">
        <ele>515.208</ele>
        <time>2020-05-24T11:42:13Z</time>
      </trkpt>
      <trkpt lat="49.05936" lon="7.78431">
        <ele>517.109</ele>
        <time>2020-05-24T11:42:25Z</time>
      </trkpt>
      <trkpt lat="49.05938" lon="7.78445">
        <ele>515.58</ele>
        <time>2020-05-24T11:42:37Z</time>
      </trkpt>
      <trkpt lat="49.05951" lon="7.78445">
        <ele>520.451</ele>
        <time>2020-05-24T11:42:48Z</time>
      </trkpt>
      <trkpt lat="49.05957" lon="7.78451">
        <ele>521.67</ele>
        <time>2020-05-24T11:42:54Z</time>
      </trkpt>
      <trkpt lat="49.05967" lon="7.78463">
        <ele>523.462</ele>
        <time>2020-05-24T11:43:12Z</time>
      </trkpt>
      <trkpt lat="49.05974" lon="7.78466">
        <ele>525.994</ele>
        <time>2020-05-24T11:43:18Z</time>
      </trkpt>
      <trkpt lat="49.05979" lon="7.78472">
        <ele>526.835</ele>
        <time>2020-05-24T11:43:24Z</time>
      </trkpt>
      <trkpt lat="49.05988" lon="7.78481">
        <ele>528.913</ele>
        <time>2020-05-24T11:43:35Z</time>
      </trkpt>
      <trkpt lat="49.05993" lon="7.785">
        <ele>527.214</ele>
        <time>2020-05-24T11:43:53Z</time>
      </trkpt>
      <trkpt lat="49.05997" lon="7.78509">
        <ele>527.36</ele>
        <time>2020-05-24T11:44:04Z</time>
      </trkpt>
      <trkpt lat="49.06002" lon="7.78513">
        <ele>529.08</ele>
        <time>2020-05-24T11:44:10Z</time>
      </trkpt>
      <trkpt lat="49.06009" lon="7.78517">
        <ele>531.567</ele>
        <time>2020-05-24T11:44:16Z</time>
      </trkpt>
      <trkpt lat="49.06017" lon="7.78524">
        <ele>533.866</ele>
        <time>2020-05-24T11:44:28Z</time>
      </trkpt>
      <trkpt lat="49.06025" lon="7.78542">
        <ele>534.99</ele>
        <time>2020-05-24T11:44:39Z</time>
      </trkpt>
      <trkpt lat="49.06033" lon="7.78554">
        <ele>536.258</ele>
        <time>2020-05-24T11:44:50Z</time>
      </trkpt>
      <trkpt lat="49.06036" lon="7.78565">
        <ele>535.326</ele>
        <time>2020-05-24T11:45:11Z</time>
      </trkpt>
      <trkpt lat="49.0604" lon="7.78573">
        <ele>536.046</ele>
        <time>2020-05-24T11:45:16Z</time>
      </trkpt>
      <trkpt lat="49.06046" lon="7.78579">
        <ele>537.965</ele>
        <time>2020-05-24T11:45:22Z</time>
      </trkpt>
      <trkpt lat="49.0605" lon="7.78586">
        <ele>539.313</ele>
        <time>2020-05-24T11:45:27Z</time>
      </trkpt>
      <trkpt lat="49.06056" lon="7.78595">
        <ele>541.051</ele>
        <time>2020-05-24T11:45:39Z</time>
      </trkpt>
      <trkpt lat="49.06064" lon="7.78599">
        <ele>541.536</ele>
        <time>2020-05-24T11:45:51Z</time>
      </trkpt>
      <trkpt lat="49.06069" lon="7.78605">
        <ele>541.767</ele>
        <time>2020-05-24T11:46:07Z</time>
      </trkpt>
      <trkpt lat="49.06075" lon="7.78615">
        <ele>542.471</ele>
        <time>2020-05-24T11:46:13Z</time>
      </trkpt>
      <trkpt lat="49.06083" lon="7.7862">
        <ele>544.352</ele>
        <time>2020-05-24T11:46:18Z</time>
      </trkpt>
      <trkpt lat="49.0609" lon="7.78631">
        <ele>544.319</ele>
        <time>2020-05-24T11:46:24Z</time>
      </trkpt>
      <trkpt lat="49.06095" lon="7.78636">
        <ele>544.764</ele>
        <time>2020-05-24T11:46:29Z</time>
      </trkpt>
      <trkpt lat="49.06102" lon="7.78638">
        <ele>545.624</ele>
        <time>2020-05-24T11:46:40Z</time>
      </trkpt>
      <trkpt lat="49.0611" lon="7.78638">
        <ele>546.857</ele>
        <time>2020-05-24T11:46:52Z</time>
      </trkpt>
      <trkpt lat="49.06119" lon="7.78635">
        <ele>545.808</ele>
        <time>2020-05-24T11:47:47Z</time>
      </trkpt>
      <trkpt lat="49.06111" lon="7.78651">
        <ele>547.847</ele>
        <time>2020-05-24T11:48:33Z</time>
      </trkpt>
      <trkpt lat="49.06107" lon="7.78656">
        <ele>547.066</ele>
        <time>2020-05-24T11:48:38Z</time>
      </trkpt>
      <trkpt lat="49.06103" lon="7.78648">
        <ele>545.829</ele>
        <time>2020-05-24T11:49:36Z</time>
      </trkpt>
      <trkpt lat="49.06093" lon="7.78647">
        <ele>543.666</ele>
        <time>2020-05-24T11:51:49Z</time>
      </trkpt>
      <trkpt lat="49.06081" lon="7.78646">
        <ele>540.496</ele>
        <time>2020-05-24T11:52:06Z</time>
      </trkpt>
      <trkpt lat="49.06072" lon="7.78641">
        <ele>537.092</ele>
        <time>2020-05-24T11:52:17Z</time>
      </trkpt>
      <trkpt lat="49.06062" lon="7.78637">
        <ele>533.561</ele>
        <time>2020-05-24T11:52:23Z</time>
      </trkpt>
      <trkpt lat="49.06057" lon="7.78631">
        <ele>532.628</ele>
        <time>2020-05-24T11:52:29Z</time>
      </trkpt>
      <trkpt lat="49.06052" lon="7.7862">
        <ele>533.337</ele>
        <time>2020-05-24T11:52:34Z</time>
      </trkpt>
      <trkpt lat="49.06048" lon="7.78608">
        <ele>534.004</ele>
        <time>2020-05-24T11:52:40Z</time>
      </trkpt>
      <trkpt lat="49.06043" lon="7.78603">
        <ele>532.074</ele>
        <time>2020-05-24T11:52:45Z</time>
      </trkpt>
      <trkpt lat="49.0604" lon="7.78591">
        <ele>532.912</ele>
        <time>2020-05-24T11:52:51Z</time>
      </trkpt>
      <trkpt lat="49.06035" lon="7.78579">
        <ele>532.855</ele>
        <time>2020-05-24T11:53:01Z</time>
      </trkpt>
      <trkpt lat="49.06031" lon="7.78572">
        <ele>532.055</ele>
        <time>2020-05-24T11:53:07Z</time>
      </trkpt>
      <trkpt lat="49.06027" lon="7.78555">
        <ele>533.522</ele>
        <time>2020-05-24T11:53:13Z</time>
      </trkpt>
      <trkpt lat="49.06022" lon="7.78549">
        <ele>532.236</ele>
        <time>2020-05-24T11:53:18Z</time>
      </trkpt>
      <trkpt lat="49.06013" lon="7.78544">
        <ele>527.797</ele>
        <time>2020-05-24T11:53:30Z</time>
      </trkpt>
      <trkpt lat="49.06001" lon="7.78538">
        <ele>523.083</ele>
        <time>2020-05-24T11:53:41Z</time>
      </trkpt>
      <trkpt lat="49.0599" lon="7.78528">
        <ele>519.558</ele>
        <time>2020-05-24T11:53:53Z</time>
      </trkpt>
      <trkpt lat="49.05984" lon="7.78512">
        <ele>519.707</ele>
        <time>2020-05-24T11:53:59Z</time>
      </trkpt>
      <trkpt lat="49.0598" lon="7.78504">
        <ele>519.938</ele>
        <time>2020-05-24T11:54:04Z</time>
      </trkpt>
      <trkpt lat="49.05976" lon="7.78495">
        <ele>520.108</ele>
        <time>2020-05-24T11:54:10Z</time>
      </trkpt>
      <trkpt lat="49.05969" lon="7.78488">
        <ele>518.578</ele>
        <time>2020-05-24T11:54:16Z</time>
      </trkpt>
      <trkpt lat="49.05964" lon="7.78483">
        <ele>517.604</ele>
        <time>2020-05-24T11:54:21Z</time>
      </trkpt>
      <trkpt lat="49.0596" lon="7.78474">
        <ele>517.86</ele>
        <time>2020-05-24T11:54:33Z</time>
      </trkpt>
      <trkpt lat="49.05953" lon="7.78471">
        <ele>515.302</ele>
        <time>2020-05-24T11:54:39Z</time>
      </trkpt>
      <trkpt lat="49.05942" lon="7.78467">
        <ele>511.319</ele>
        <time>2020-05-24T11:54:50Z</time>
      </trkpt>
      <trkpt lat="49.05931" lon="7.78461">
        <ele>508.827</ele>
        <time>2020-05-24T11:55:02Z</time>
      </trkpt>
      <trkpt lat="49.05928" lon="7.78448">
        <ele>511.239</ele>
        <time>2020-05-24T11:55:08Z</time>
      </trkpt>
      <trkpt lat="49.05924" lon="7.78441">
        <ele>511.423</ele>
        <time>2020-05-24T11:55:20Z</time>
      </trkpt>
      <trkpt lat="49.05912" lon="7.78439">
        <ele>508.087</ele>
        <time>2020-05-24T11:55:32Z</time>
      </trkpt>
      <trkpt lat="49.05903" lon="7.78432">
        <ele>507.179</ele>
        <time>2020-05-24T11:55:44Z</time>
      </trkpt>
      <trkpt lat="49.05896" lon="7.78428">
        <ele>506.267</ele>
        <time>2020-05-24T11:55:50Z</time>
      </trkpt>
      <trkpt lat="49.05891" lon="7.78423">
        <ele>506.213</ele>
        <time>2020-05-24T11:55:56Z</time>
      </trkpt>
      <trkpt lat="49.05884" lon="7.78417">
        <ele>506.021</ele>
        <time>2020-05-24T11:56:02Z</time>
      </trkpt>
      <trkpt lat="49.05874" lon="7.78412">
        <ele>503.723</ele>
        <time>2020-05-24T11:56:13Z</time>
      </trkpt>
      <trkpt lat="49.05863" lon="7.78403">
        <ele>501.804</ele>
        <time>2020-05-24T11:56:57Z</time>
      </trkpt>
      <trkpt lat="49.0585" lon="7.78401">
        <ele>500.252</ele>
        <time>2020-05-24T11:57:07Z</time>
      </trkpt>
      <trkpt lat="49.05835" lon="7.78398">
        <ele>498.574</ele>
        <time>2020-05-24T11:57:18Z</time>
      </trkpt>
      <trkpt lat="49.05824" lon="7.78393">
        <ele>498.343</ele>
        <time>2020-05-24T11:57:24Z</time>
      </trkpt>
      <trkpt lat="49.05817" lon="7.78391">
        <ele>498.172</ele>
        <time>2020-05-24T11:57:30Z</time>
      </trkpt>
      <trkpt lat="49.05806" lon="7.78392">
        <ele>497.701</ele>
        <time>2020-05-24T11:57:36Z</time>
      </trkpt>
      <trkpt lat="49.0579" lon="7.78393">
        <ele>497.401</ele>
        <time>2020-05-24T11:57:47Z</time>
      </trkpt>
      <trkpt lat="49.05782" lon="7.7839">
        <ele>497.846</ele>
        <time>2020-05-24T11:57:53Z</time>
      </trkpt>
      <trkpt lat="49.05771" lon="7.78393">
        <ele>497.332</ele>
        <time>2020-05-24T11:58:03Z</time>
      </trkpt>
      <trkpt lat="49.05762" lon="7.78392">
        <ele>497.521</ele>
        <time>2020-05-24T11:58:09Z</time>
      </trkpt>
      <trkpt lat="49.05754" lon="7.78395">
        <ele>496.954</ele>
        <time>2020-05-24T11:58:14Z</time>
      </trkpt>
      <trkpt lat="49.05741" lon="7.78395">
        <ele>497.641</ele>
        <time>2020-05-24T11:58:20Z</time>
      </trkpt>
      <trkpt lat="49.05735" lon="7.78388">
        <ele>499.037</ele>
        <time>2020-05-24T11:58:25Z</time>
      </trkpt>
      <trkpt lat="49.05726" lon="7.78376">
        <ele>499.106</ele>
        <time>2020-05-24T11:58:36Z</time>
      </trkpt>
      <trkpt lat="49.05723" lon="7.78367">
        <ele>499.137</ele>
        <time>2020-05-24T11:58:47Z</time>
      </trkpt>
      <trkpt lat="49.05718" lon="7.78358">
        <ele>499.078</ele>
        <time>2020-05-24T11:58:59Z</time>
      </trkpt>
      <trkpt lat="49.05716" lon="7.78346">
        <ele>496.365</ele>
        <time>2020-05-24T11:59:05Z</time>
      </trkpt>
      <trkpt lat="49.05709" lon="7.7834">
        <ele>496.011</ele>
        <time>2020-05-24T11:59:10Z</time>
      </trkpt>
      <trkpt lat="49.05701" lon="7.78333">
        <ele>495.74</ele>
        <time>2020-05-24T11:59:16Z</time>
      </trkpt>
      <trkpt lat="49.05694" lon="7.78328">
        <ele>495.499</ele>
        <time>2020-05-24T11:59:27Z</time>
      </trkpt>
      <trkpt lat="49.05679" lon="7.78321">
        <ele>497.227</ele>
        <time>2020-05-24T11:59:38Z</time>
      </trkpt>
      <trkpt lat="49.05671" lon="7.78312">
        <ele>496.41</ele>
        <time>2020-05-24T11:59:44Z</time>
      </trkpt>
      <trkpt lat="49.05655" lon="7.7831">
        <ele>498.72</ele>
        <time>2020-05-24T11:59:55Z</time>
      </trkpt>
      <trkpt lat="49.05639" lon="7.78305">
        <ele>499.771</ele>
        <time>2020-05-24T12:00:06Z</time>
      </trkpt>
      <trkpt lat="49.05632" lon="7.78301">
        <ele>500.01</ele>
        <time>2020-05-24T12:00:11Z</time>
      </trkpt>
      <trkpt lat="49.05627" lon="7.78296">
        <ele>499.202</ele>
        <time>2020-05-24T12:00:17Z</time>
      </trkpt>
      <trkpt lat="49.05622" lon="7.7829">
        <ele>498.323</ele>
        <time>2020-05-24T12:00:23Z</time>
      </trkpt>
      <trkpt lat="49.05615" lon="7.78286">
        <ele>498.032</ele>
        <time>2020-05-24T12:00:29Z</time>
      </trkpt>
      <trkpt lat="49.05611" lon="7.78281">
        <ele>497.26</ele>
        <time>2020-05-24T12:00:34Z</time>
      </trkpt>
      <trkpt lat="49.05603" lon="7.7827">
        <ele>495.341</ele>
        <time>2020-05-24T12:00:45Z</time>
      </trkpt>
      <trkpt lat="49.05598" lon="7.78265">
        <ele>495.063</ele>
        <time>2020-05-24T12:00:51Z</time>
      </trkpt>
      <trkpt lat="49.05593" lon="7.78259">
        <ele>494.126</ele>
        <time>2020-05-24T12:00:56Z</time>
      </trkpt>
      <trkpt lat="49.05586" lon="7.78256">
        <ele>494.744</ele>
        <time>2020-05-24T12:01:02Z</time>
      </trkpt>
      <trkpt lat="49.05578" lon="7.7825">
        <ele>493.898</ele>
        <time>2020-05-24T12:01:08Z</time>
      </trkpt>
      <trkpt lat="49.05573" lon="7.78244">
        <ele>492.46</ele>
        <time>2020-05-24T12:01:13Z</time>
      </trkpt>
      <trkpt lat="49.05569" lon="7.78235">
        <ele>490.317</ele>
        <time>2020-05-24T12:01:19Z</time>
      </trkpt>
      <trkpt lat="49.05555" lon="7.78231">
        <ele>491.774</ele>
        <time>2020-05-24T12:01:30Z</time>
      </trkpt>
      <trkpt lat="49.0555" lon="7.78222">
        <ele>490.011</ele>
        <time>2020-05-24T12:01:36Z</time>
      </trkpt>
      <trkpt lat="49.05543" lon="7.78217">
        <ele>489.662</ele>
        <time>2020-05-24T12:01:42Z</time>
      </trkpt>
      <trkpt lat="49.05537" lon="7.7821">
        <ele>488.086</ele>
        <time>2020-05-24T12:01:52Z</time>
      </trkpt>
      <trkpt lat="49.05527" lon="7.78199">
        <ele>485.871</ele>
        <time>2020-05-24T12:02:10Z</time>
      </trkpt>
      <trkpt lat="49.05514" lon="7.78195">
        <ele>487.044</ele>
        <time>2020-05-24T12:02:21Z</time>
      </trkpt>
      <trkpt lat="49.05507" lon="7.78185">
        <ele>485.529</ele>
        <time>2020-05-24T12:02:27Z</time>
      </trkpt>
      <trkpt lat="49.05502" lon="7.78178">
        <ele>484.12</ele>
        <time>2020-05-24T12:02:33Z</time>
      </trkpt>
      <trkpt lat="49.05497" lon="7.78167">
        <ele>481.164</ele>
        <time>2020-05-24T12:02:38Z</time>
      </trkpt>
      <trkpt lat="49.05493" lon="7.7816">
        <ele>479.173</ele>
        <time>2020-05-24T12:02:43Z</time>
      </trkpt>
      <trkpt lat="49.05487" lon="7.78155">
        <ele>477.94</ele>
        <time>2020-05-24T12:02:49Z</time>
      </trkpt>
      <trkpt lat="49.05481" lon="7.78148">
        <ele>476.913</ele>
        <time>2020-05-24T12:02:55Z</time>
      </trkpt>
      <trkpt lat="49.05476" lon="7.78143">
        <ele>476.225</ele>
        <time>2020-05-24T12:03:00Z</time>
      </trkpt>
      <trkpt lat="49.05472" lon="7.78134">
        <ele>475.278</ele>
        <time>2020-05-24T12:03:06Z</time>
      </trkpt>
      <trkpt lat="49.05466" lon="7.78131">
        <ele>474.09</ele>
        <time>2020-05-24T12:03:11Z</time>
      </trkpt>
      <trkpt lat="49.05461" lon="7.78125">
        <ele>473.012</ele>
        <time>2020-05-24T12:03:17Z</time>
      </trkpt>
      <trkpt lat="49.05456" lon="7.7812">
        <ele>472.341</ele>
        <time>2020-05-24T12:03:28Z</time>
      </trkpt>
      <trkpt lat="49.05452" lon="7.78109">
        <ele>471.831</ele>
        <time>2020-05-24T12:04:22Z</time>
      </trkpt>
      <trkpt lat="49.05444" lon="7.78103">
        <ele>471.525</ele>
        <time>2020-05-24T12:04:33Z</time>
      </trkpt>
      <trkpt lat="49.05439" lon="7.78108">
        <ele>470.049</ele>
        <time>2020-05-24T12:05:12Z</time>
      </trkpt>
      <trkpt lat="49.05438" lon="7.78119">
        <ele>469.175</ele>
        <time>2020-05-24T12:05:17Z</time>
      </trkpt>
      <trkpt lat="49.05435" lon="7.78129">
        <ele>467.241</ele>
        <time>2020-05-24T12:05:23Z</time>
      </trkpt>
      <trkpt lat="49.05432" lon="7.78141">
        <ele>464.554</ele>
        <time>2020-05-24T12:05:34Z</time>
      </trkpt>
      <trkpt lat="49.05427" lon="7.78161">
        <ele>461</ele>
        <time>2020-05-24T12:05:51Z</time>
      </trkpt>
      <trkpt lat="49.05423" lon="7.78179">
        <ele>459.866</ele>
        <time>2020-05-24T12:06:02Z</time>
      </trkpt>
      <trkpt lat="49.05421" lon="7.78188">
        <ele>459.311</ele>
        <time>2020-05-24T12:06:08Z</time>
      </trkpt>
      <trkpt lat="49.05422" lon="7.78199">
        <ele>460.515</ele>
        <time>2020-05-24T12:06:31Z</time>
      </trkpt>
      <trkpt lat="49.05417" lon="7.78207">
        <ele>458.668</ele>
        <time>2020-05-24T12:06:42Z</time>
      </trkpt>
      <trkpt lat="49.05412" lon="7.78214">
        <ele>456.492</ele>
        <time>2020-05-24T12:06:53Z</time>
      </trkpt>
      <trkpt lat="49.05405" lon="7.78221">
        <ele>452.943</ele>
        <time>2020-05-24T12:07:10Z</time>
      </trkpt>
      <trkpt lat="49.05402" lon="7.7823">
        <ele>453.253</ele>
        <time>2020-05-24T12:07:21Z</time>
      </trkpt>
      <trkpt lat="49.05398" lon="7.78238">
        <ele>452.197</ele>
        <time>2020-05-24T12:07:32Z</time>
      </trkpt>
      <trkpt lat="49.05393" lon="7.78245">
        <ele>450.587</ele>
        <time>2020-05-24T12:07:38Z</time>
      </trkpt>
      <trkpt lat="49.05389" lon="7.78251">
        <ele>449.33</ele>
        <time>2020-05-24T12:07:43Z</time>
      </trkpt>
      <trkpt lat="49.05386" lon="7.78263">
        <ele>450.117</ele>
        <time>2020-05-24T12:07:49Z</time>
      </trkpt>
      <trkpt lat="49.0538" lon="7.78283">
        <ele>450.532</ele>
        <time>2020-05-24T12:08:05Z</time>
      </trkpt>
      <trkpt lat="49.05373" lon="7.78294">
        <ele>448.235</ele>
        <time>2020-05-24T12:08:10Z</time>
      </trkpt>
      <trkpt lat="49.05368" lon="7.78298">
        <ele>445.28</ele>
        <time>2020-05-24T12:08:15Z</time>
      </trkpt>
      <trkpt lat="49.05362" lon="7.78315">
        <ele>445.349</ele>
        <time>2020-05-24T12:08:32Z</time>
      </trkpt>
      <trkpt lat="49.05355" lon="7.78326">
        <ele>443.495</ele>
        <time>2020-05-24T12:08:54Z</time>
      </trkpt>
      <trkpt lat="49.05354" lon="7.78337">
        <ele>445.043</ele>
        <time>2020-05-24T12:08:59Z</time>
      </trkpt>
      <trkpt lat="49.05347" lon="7.78356">
        <ele>445.118</ele>
        <time>2020-05-24T12:09:21Z</time>
      </trkpt>
      <trkpt lat="49.0534" lon="7.78369">
        <ele>444.298</ele>
        <time>2020-05-24T12:10:06Z</time>
      </trkpt>
      <trkpt lat="49.05336" lon="7.78374">
        <ele>443.06</ele>
        <time>2020-05-24T12:10:12Z</time>
      </trkpt>
      <trkpt lat="49.0533" lon="7.78384">
        <ele>442.632</ele>
        <time>2020-05-24T12:10:23Z</time>
      </trkpt>
      <trkpt lat="49.05323" lon="7.78396">
        <ele>442.364</ele>
        <time>2020-05-24T12:10:34Z</time>
      </trkpt>
      <trkpt lat="49.05316" lon="7.78404">
        <ele>440.38</ele>
        <time>2020-05-24T12:10:40Z</time>
      </trkpt>
      <trkpt lat="49.05307" lon="7.78413">
        <ele>438.984</ele>
        <time>2020-05-24T12:10:45Z</time>
      </trkpt>
      <trkpt lat="49.05297" lon="7.7842">
        <ele>436.167</ele>
        <time>2020-05-24T12:10:51Z</time>
      </trkpt>
      <trkpt lat="49.0529" lon="7.78422">
        <ele>433.262</ele>
        <time>2020-05-24T12:11:01Z</time>
      </trkpt>
      <trkpt lat="49.05285" lon="7.78431">
        <ele>433.714</ele>
        <time>2020-05-24T12:11:12Z</time>
      </trkpt>
      <trkpt lat="49.05279" lon="7.78438">
        <ele>433.316</ele>
        <time>2020-05-24T12:11:29Z</time>
      </trkpt>
      <trkpt lat="49.05271" lon="7.78438">
        <ele>429.499</ele>
        <time>2020-05-24T12:11:51Z</time>
      </trkpt>
      <trkpt lat="49.05267" lon="7.78443">
        <ele>429.321</ele>
        <time>2020-05-24T12:12:07Z</time>
      </trkpt>
      <trkpt lat="49.0526" lon="7.7846">
        <ele>432.361</ele>
        <time>2020-05-24T12:12:24Z</time>
      </trkpt>
      <trkpt lat="49.05252" lon="7.78464">
        <ele>429.221</ele>
        <time>2020-05-24T12:12:35Z</time>
      </trkpt>
      <trkpt lat="49.05244" lon="7.78465">
        <ele>426.072</ele>
        <time>2020-05-24T12:12:46Z</time>
      </trkpt>
      <trkpt lat="49.05236" lon="7.78468">
        <ele>423.464</ele>
        <time>2020-05-24T12:12:58Z</time>
      </trkpt>
      <trkpt lat="49.0523" lon="7.78478">
        <ele>424.614</ele>
        <time>2020-05-24T12:13:09Z</time>
      </trkpt>
      <trkpt lat="49.05223" lon="7.78481">
        <ele>422.768</ele>
        <time>2020-05-24T12:13:20Z</time>
      </trkpt>
      <trkpt lat="49.05217" lon="7.78488">
        <ele>422.79</ele>
        <time>2020-05-24T12:13:26Z</time>
      </trkpt>
      <trkpt lat="49.05209" lon="7.7849">
        <ele>420.502</ele>
        <time>2020-05-24T12:13:37Z</time>
      </trkpt>
      <trkpt lat="49.05204" lon="7.78497">
        <ele>420.955</ele>
        <time>2020-05-24T12:13:48Z</time>
      </trkpt>
      <trkpt lat="49.05196" lon="7.78503">
        <ele>419.677</ele>
        <time>2020-05-24T12:13:59Z</time>
      </trkpt>
      <trkpt lat="49.05186" lon="7.78508">
        <ele>417.578</ele>
        <time>2020-05-24T12:14:10Z</time>
      </trkpt>
      <trkpt lat="49.05178" lon="7.78512">
        <ele>415.952</ele>
        <time>2020-05-24T12:14:21Z</time>
      </trkpt>
      <trkpt lat="49.05169" lon="7.78519">
        <ele>414.245</ele>
        <time>2020-05-24T12:14:32Z</time>
      </trkpt>
      <trkpt lat="49.05164" lon="7.78523">
        <ele>413.395</ele>
        <time>2020-05-24T12:14:37Z</time>
      </trkpt>
      <trkpt lat="49.05154" lon="7.78531">
        <ele>412.589</ele>
        <time>2020-05-24T12:14:48Z</time>
      </trkpt>
      <trkpt lat="49.05147" lon="7.78536">
        <ele>411.369</ele>
        <time>2020-05-24T12:14:59Z</time>
      </trkpt>
      <trkpt lat="49.05142" lon="7.78542">
        <ele>411.957</ele>
        <time>2020-05-24T12:15:05Z</time>
      </trkpt>
      <trkpt lat="49.05135" lon="7.78544">
        <ele>409.602</ele>
        <time>2020-05-24T12:15:10Z</time>
      </trkpt>
      <trkpt lat="49.0513" lon="7.78551">
        <ele>410.033</ele>
        <time>2020-05-24T12:15:21Z</time>
      </trkpt>
      <trkpt lat="49.05121" lon="7.78556">
        <ele>408.275</ele>
        <time>2020-05-24T12:15:32Z</time>
      </trkpt>
      <trkpt lat="49.05115" lon="7.78561">
        <ele>407.23</ele>
        <time>2020-05-24T12:15:38Z</time>
      </trkpt>
      <trkpt lat="49.05107" lon="7.78565">
        <ele>405.612</ele>
        <time>2020-05-24T12:15:56Z</time>
      </trkpt>
      <trkpt lat="49.05102" lon="7.78571">
        <ele>405.422</ele>
        <time>2020-05-24T12:16:01Z</time>
      </trkpt>
      <trkpt lat="49.05096" lon="7.78584">
        <ele>407.214</ele>
        <time>2020-05-24T12:16:12Z</time>
      </trkpt>
      <trkpt lat="49.05085" lon="7.7859">
        <ele>404.61</ele>
        <time>2020-05-24T12:16:23Z</time>
      </trkpt>
      <trkpt lat="49.05077" lon="7.78596">
        <ele>403.232</ele>
        <time>2020-05-24T12:16:34Z</time>
      </trkpt>
      <trkpt lat="49.05067" lon="7.78603">
        <ele>400.969</ele>
        <time>2020-05-24T12:16:46Z</time>
      </trkpt>
      <trkpt lat="49.05057" lon="7.78613">
        <ele>399.104</ele>
        <time>2020-05-24T12:16:57Z</time>
      </trkpt>
      <trkpt lat="49.05052" lon="7.78622">
        <ele>398.481</ele>
        <time>2020-05-24T12:17:08Z</time>
      </trkpt>
      <trkpt lat="49.05045" lon="7.78632">
        <ele>397.477</ele>
        <time>2020-05-24T12:17:19Z</time>
      </trkpt>
      <trkpt lat="49.05041" lon="7.78642">
        <ele>397.02</ele>
        <time>2020-05-24T12:17:30Z</time>
      </trkpt>
      <trkpt lat="49.05035" lon="7.78649">
        <ele>395.126</ele>
        <time>2020-05-24T12:17:36Z</time>
      </trkpt>
      <trkpt lat="49.05029" lon="7.78654">
        <ele>393.237</ele>
        <time>2020-05-24T12:17:42Z</time>
      </trkpt>
      <trkpt lat="49.05022" lon="7.78672">
        <ele>392.499</ele>
        <time>2020-05-24T12:17:53Z</time>
      </trkpt>
      <trkpt lat="49.05018" lon="7.78686">
        <ele>391.918</ele>
        <time>2020-05-24T12:18:04Z</time>
      </trkpt>
      <trkpt lat="49.0501" lon="7.78694">
        <ele>389.627</ele>
        <time>2020-05-24T12:18:15Z</time>
      </trkpt>
      <trkpt lat="49.04997" lon="7.78696">
        <ele>385.534</ele>
        <time>2020-05-24T12:18:27Z</time>
      </trkpt>
      <trkpt lat="49.04989" lon="7.78705">
        <ele>384.254</ele>
        <time>2020-05-24T12:18:38Z</time>
      </trkpt>
      <trkpt lat="49.0498" lon="7.7871">
        <ele>382.571</ele>
        <time>2020-05-24T12:18:55Z</time>
      </trkpt>
      <trkpt lat="49.04974" lon="7.78715">
        <ele>381.438</ele>
        <time>2020-05-24T12:19:00Z</time>
      </trkpt>
      <trkpt lat="49.0497" lon="7.78728">
        <ele>380.558</ele>
        <time>2020-05-24T12:19:17Z</time>
      </trkpt>
      <trkpt lat="49.04968" lon="7.78736">
        <ele>379.926</ele>
        <time>2020-05-24T12:19:23Z</time>
      </trkpt>
      <trkpt lat="49.04966" lon="7.78748">
        <ele>379.543</ele>
        <time>2020-05-24T12:19:35Z</time>
      </trkpt>
      <trkpt lat="49.04964" lon="7.78758">
        <ele>378.496</ele>
        <time>2020-05-24T12:19:51Z</time>
      </trkpt>
      <trkpt lat="49.0496" lon="7.78774">
        <ele>376.875</ele>
        <time>2020-05-24T12:19:57Z</time>
      </trkpt>
      <trkpt lat="49.04955" lon="7.78809">
        <ele>374.663</ele>
        <time>2020-05-24T12:20:18Z</time>
      </trkpt>
      <trkpt lat="49.04952" lon="7.78819">
        <ele>373.726</ele>
        <time>2020-05-24T12:20:24Z</time>
      </trkpt>
      <trkpt lat="49.04947" lon="7.78831">
        <ele>372.519</ele>
        <time>2020-05-24T12:20:30Z</time>
      </trkpt>
      <trkpt lat="49.04945" lon="7.7885">
        <ele>370.941</ele>
        <time>2020-05-24T12:20:41Z</time>
      </trkpt>
      <trkpt lat="49.04945" lon="7.78864">
        <ele>370.038</ele>
        <time>2020-05-24T12:20:47Z</time>
      </trkpt>
      <trkpt lat="49.04943" lon="7.78872">
        <ele>369.448</ele>
        <time>2020-05-24T12:20:52Z</time>
      </trkpt>
      <trkpt lat="49.04932" lon="7.78879">
        <ele>368.05</ele>
        <time>2020-05-24T12:21:09Z</time>
      </trkpt>
      <trkpt lat="49.04922" lon="7.78874">
        <ele>367.085</ele>
        <time>2020-05-24T12:21:20Z</time>
      </trkpt>
      <trkpt lat="49.04914" lon="7.78873">
        <ele>366.242</ele>
        <time>2020-05-24T12:21:26Z</time>
      </trkpt>
      <trkpt lat="49.04908" lon="7.7886">
        <ele>366.065</ele>
        <time>2020-05-24T12:21:37Z</time>
      </trkpt>
      <trkpt lat="49.04902" lon="7.78854">
        <ele>365.707</ele>
        <time>2020-05-24T12:21:42Z</time>
      </trkpt>
      <trkpt lat="49.04897" lon="7.78849">
        <ele>365.298</ele>
        <time>2020-05-24T12:21:47Z</time>
      </trkpt>
      <trkpt lat="49.0489" lon="7.78836">
        <ele>364.999</ele>
        <time>2020-05-24T12:21:58Z</time>
      </trkpt>
      <trkpt lat="49.04885" lon="7.78831">
        <ele>364.67</ele>
        <time>2020-05-24T12:22:03Z</time>
      </trkpt>
      <trkpt lat="49.04869" lon="7.78824">
        <ele>363.215</ele>
        <time>2020-05-24T12:22:14Z</time>
      </trkpt>
      <trkpt lat="49.04861" lon="7.78819">
        <ele>362.544</ele>
        <time>2020-05-24T12:22:19Z</time>
      </trkpt>
      <trkpt lat="49.04854" lon="7.78814">
        <ele>361.675</ele>
        <time>2020-05-24T12:22:25Z</time>
      </trkpt>
      <trkpt lat="49.04844" lon="7.78807">
        <ele>360.967</ele>
        <time>2020-05-24T12:22:35Z</time>
      </trkpt>
      <trkpt lat="49.04838" lon="7.788">
        <ele>360.535</ele>
        <time>2020-05-24T12:22:41Z</time>
      </trkpt>
      <trkpt lat="49.04833" lon="7.78793">
        <ele>359.962</ele>
        <time>2020-05-24T12:22:47Z</time>
      </trkpt>
      <trkpt lat="49.04828" lon="7.78789">
        <ele>359.176</ele>
        <time>2020-05-24T12:22:52Z</time>
      </trkpt>
      <trkpt lat="49.04822" lon="7.78786">
        <ele>358.315</ele>
        <time>2020-05-24T12:22:58Z</time>
      </trkpt>
      <trkpt lat="49.04812" lon="7.78782">
        <ele>357.176</ele>
        <time>2020-05-24T12:23:09Z</time>
      </trkpt>
      <trkpt lat="49.04807" lon="7.78769">
        <ele>357.448</ele>
        <time>2020-05-24T12:23:26Z</time>
      </trkpt>
      <trkpt lat="49.048" lon="7.78767">
        <ele>356.27</ele>
        <time>2020-05-24T12:23:32Z</time>
      </trkpt>
      <trkpt lat="49.04791" lon="7.78762">
        <ele>354.763</ele>
        <time>2020-05-24T12:23:38Z</time>
      </trkpt>
      <trkpt lat="49.04782" lon="7.78757">
        <ele>353.726</ele>
        <time>2020-05-24T12:23:44Z</time>
      </trkpt>
      <trkpt lat="49.04778" lon="7.78751">
        <ele>353.876</ele>
        <time>2020-05-24T12:23:49Z</time>
      </trkpt>
      <trkpt lat="49.04774" lon="7.78743">
        <ele>353.063</ele>
        <time>2020-05-24T12:23:55Z</time>
      </trkpt>
      <trkpt lat="49.04767" lon="7.7874">
        <ele>351.442</ele>
        <time>2020-05-24T12:24:01Z</time>
      </trkpt>
      <trkpt lat="49.04761" lon="7.78737">
        <ele>350.265</ele>
        <time>2020-05-24T12:24:07Z</time>
      </trkpt>
      <trkpt lat="49.04751" lon="7.7873">
        <ele>348.207</ele>
        <time>2020-05-24T12:24:18Z</time>
      </trkpt>
      <trkpt lat="49.04744" lon="7.78727">
        <ele>347.182</ele>
        <time>2020-05-24T12:24:24Z</time>
      </trkpt>
      <trkpt lat="49.04737" lon="7.78721">
        <ele>346.554</ele>
        <time>2020-05-24T12:24:30Z</time>
      </trkpt>
      <trkpt lat="49.04733" lon="7.78713">
        <ele>346.194</ele>
        <time>2020-05-24T12:24:35Z</time>
      </trkpt>
      <trkpt lat="49.04727" lon="7.78701">
        <ele>345.546</ele>
        <time>2020-05-24T12:24:47Z</time>
      </trkpt>
      <trkpt lat="49.04717" lon="7.78692">
        <ele>344.691</ele>
        <time>2020-05-24T12:24:59Z</time>
      </trkpt>
      <trkpt lat="49.04715" lon="7.78674">
        <ele>343.827</ele>
        <time>2020-05-24T12:25:10Z</time>
      </trkpt>
      <trkpt lat="49.04712" lon="7.78656">
        <ele>342.53</ele>
        <time>2020-05-24T12:25:21Z</time>
      </trkpt>
      <trkpt lat="49.04714" lon="7.7864">
        <ele>341.479</ele>
        <time>2020-05-24T12:26:31Z</time>
      </trkpt>
      <trkpt lat="49.04716" lon="7.78631">
        <ele>340.712</ele>
        <time>2020-05-24T12:26:37Z</time>
      </trkpt>
      <trkpt lat="49.04721" lon="7.78622">
        <ele>340.103</ele>
        <time>2020-05-24T12:26:43Z</time>
      </trkpt>
      <trkpt lat="49.04727" lon="7.78614">
        <ele>339.984</ele>
        <time>2020-05-24T12:26:49Z</time>
      </trkpt>
      <trkpt lat="49.04733" lon="7.78604">
        <ele>339.846</ele>
        <time>2020-05-24T12:27:01Z</time>
      </trkpt>
      <trkpt lat="49.04737" lon="7.78596">
        <ele>339.849</ele>
        <time>2020-05-24T12:27:06Z</time>
      </trkpt>
      <trkpt lat="49.04743" lon="7.78588">
        <ele>340.11</ele>
        <time>2020-05-24T12:27:11Z</time>
      </trkpt>
      <trkpt lat="49.04748" lon="7.78581">
        <ele>340.274</ele>
        <time>2020-05-24T12:27:17Z</time>
      </trkpt>
      <trkpt lat="49.04752" lon="7.78572">
        <ele>340.216</ele>
        <time>2020-05-24T12:27:22Z</time>
      </trkpt>
      <trkpt lat="49.04757" lon="7.78564">
        <ele>340.409</ele>
        <time>2020-05-24T12:27:28Z</time>
      </trkpt>
      <trkpt lat="49.04763" lon="7.78553">
        <ele>340.584</ele>
        <time>2020-05-24T12:27:49Z</time>
      </trkpt>
      <trkpt lat="49.04767" lon="7.78542">
        <ele>340.726</ele>
        <time>2020-05-24T12:27:55Z</time>
      </trkpt>
      <trkpt lat="49.04771" lon="7.78535">
        <ele>341.093</ele>
        <time>2020-05-24T12:28:00Z</time>
      </trkpt>
      <trkpt lat="49.04777" lon="7.78527">
        <ele>341.658</ele>
        <time>2020-05-24T12:28:06Z</time>
      </trkpt>
      <trkpt lat="49.04782" lon="7.7852">
        <ele>341.667</ele>
        <time>2020-05-24T12:28:11Z</time>
      </trkpt>
      <trkpt lat="49.04786" lon="7.78509">
        <ele>341.141</ele>
        <time>2020-05-24T12:28:17Z</time>
      </trkpt>
      <trkpt lat="49.04793" lon="7.785">
        <ele>341.188</ele>
        <time>2020-05-24T12:28:45Z</time>
      </trkpt>
      <trkpt lat="49.04797" lon="7.78487">
        <ele>340.531</ele>
        <time>2020-05-24T12:29:01Z</time>
      </trkpt>
      <trkpt lat="49.04801" lon="7.78474">
        <ele>339.622</ele>
        <time>2020-05-24T12:29:12Z</time>
      </trkpt>
      <trkpt lat="49.04806" lon="7.78469">
        <ele>339.531</ele>
        <time>2020-05-24T12:29:34Z</time>
      </trkpt>
      <trkpt lat="49.04809" lon="7.78451">
        <ele>337.172</ele>
        <time>2020-05-24T13:16:02Z</time>
      </trkpt>
      <trkpt lat="49.04812" lon="7.78435">
        <ele>334.936</ele>
        <time>2020-05-24T13:16:14Z</time>
      </trkpt>
      <trkpt lat="49.04817" lon="7.78418">
        <ele>332.55</ele>
        <time>2020-05-24T13:16:26Z</time>
      </trkpt>
      <trkpt lat="49.0482" lon="7.78401">
        <ele>330.253</ele>
        <time>2020-05-24T13:16:38Z</time>
      </trkpt>
      <trkpt lat="49.04828" lon="7.78408">
        <ele>331.607</ele>
        <time>2020-05-24T13:17:52Z</time>
      </trkpt>
      <trkpt lat="49.04827" lon="7.78421">
        <ele>333.34</ele>
        <time>2020-05-24T13:18:14Z</time>
      </trkpt>
      <trkpt lat="49.04825" lon="7.78431">
        <ele>334.791</ele>
        <time>2020-05-24T13:18:25Z</time>
      </trkpt>
      <trkpt lat="49.04821" lon="7.78439">
        <ele>335.711</ele>
        <time>2020-05-24T13:18:42Z</time>
      </trkpt>
      <trkpt lat="49.04816" lon="7.78449">
        <ele>337.152</ele>
        <time>2020-05-24T13:18:53Z</time>
      </trkpt>
      <trkpt lat="49.04813" lon="7.78459">
        <ele>338.491</ele>
        <time>2020-05-24T13:19:04Z</time>
      </trkpt>
      <trkpt lat="49.04811" lon="7.78469">
        <ele>339.983</ele>
        <time>2020-05-24T13:19:49Z</time>
      </trkpt>
      <trkpt lat="49.04805" lon="7.78477">
        <ele>340.387</ele>
        <time>2020-05-24T13:24:37Z</time>
      </trkpt>
      <trkpt lat="49.04798" lon="7.78484">
        <ele>340.32</ele>
        <time>2020-05-24T13:24:48Z</time>
      </trkpt>
      <trkpt lat="49.04792" lon="7.78494">
        <ele>340.502</ele>
        <time>2020-05-24T13:24:59Z</time>
      </trkpt>
      <trkpt lat="49.04787" lon="7.78503">
        <ele>340.638</ele>
        <time>2020-05-24T13:25:11Z</time>
      </trkpt>
      <trkpt lat="49.04783" lon="7.78512">
        <ele>341.07</ele>
        <time>2020-05-24T13:25:21Z</time>
      </trkpt>
      <trkpt lat="49.0478" lon="7.78521">
        <ele>341.662</ele>
        <time>2020-05-24T13:25:27Z</time>
      </trkpt>
      <trkpt lat="49.04774" lon="7.78534">
        <ele>341.695</ele>
        <time>2020-05-24T13:25:38Z</time>
      </trkpt>
      <trkpt lat="49.04769" lon="7.78546">
        <ele>341.431</ele>
        <time>2020-05-24T13:25:49Z</time>
      </trkpt>
      <trkpt lat="49.04768" lon="7.78556">
        <ele>341.862</ele>
        <time>2020-05-24T13:26:00Z</time>
      </trkpt>
      <trkpt lat="49.04764" lon="7.78564">
        <ele>341.753</ele>
        <time>2020-05-24T13:26:06Z</time>
      </trkpt>
      <trkpt lat="49.04755" lon="7.78573">
        <ele>340.799</ele>
        <time>2020-05-24T13:26:34Z</time>
      </trkpt>
      <trkpt lat="49.04752" lon="7.78579">
        <ele>340.852</ele>
        <time>2020-05-24T13:26:52Z</time>
      </trkpt>
      <trkpt lat="49.04746" lon="7.78586">
        <ele>340.419</ele>
        <time>2020-05-24T13:28:41Z</time>
      </trkpt>
      <trkpt lat="49.04743" lon="7.78601">
        <ele>341.208</ele>
        <time>2020-05-24T13:28:52Z</time>
      </trkpt>
      <trkpt lat="49.04737" lon="7.78614">
        <ele>341.353</ele>
        <time>2020-05-24T13:29:03Z</time>
      </trkpt>
      <trkpt lat="49.04728" lon="7.78624">
        <ele>341.131</ele>
        <time>2020-05-24T13:29:14Z</time>
      </trkpt>
      <trkpt lat="49.0472" lon="7.78633">
        <ele>341.196</ele>
        <time>2020-05-24T13:29:25Z</time>
      </trkpt>
      <trkpt lat="49.04713" lon="7.78641">
        <ele>341.453</ele>
        <time>2020-05-24T13:29:36Z</time>
      </trkpt>
      <trkpt lat="49.04708" lon="7.78646">
        <ele>341.489</ele>
        <time>2020-05-24T13:29:47Z</time>
      </trkpt>
      <trkpt lat="49.04711" lon="7.78661">
        <ele>342.747</ele>
        <time>2020-05-24T13:30:05Z</time>
      </trkpt>
      <trkpt lat="49.04713" lon="7.78677">
        <ele>343.848</ele>
        <time>2020-05-24T13:30:28Z</time>
      </trkpt>
      <trkpt lat="49.04705" lon="7.7868">
        <ele>343.521</ele>
        <time>2020-05-24T13:30:56Z</time>
      </trkpt>
      <trkpt lat="49.04697" lon="7.78684">
        <ele>343.352</ele>
        <time>2020-05-24T13:31:07Z</time>
      </trkpt>
      <trkpt lat="49.04687" lon="7.7869">
        <ele>343.235</ele>
        <time>2020-05-24T13:31:18Z</time>
      </trkpt>
      <trkpt lat="49.0467" lon="7.78693">
        <ele>342.206</ele>
        <time>2020-05-24T13:31:30Z</time>
      </trkpt>
      <trkpt lat="49.04659" lon="7.78686">
        <ele>342.379</ele>
        <time>2020-05-24T13:31:42Z</time>
      </trkpt>
      <trkpt lat="49.0466" lon="7.78698">
        <ele>341.812</ele>
        <time>2020-05-24T13:31:53Z</time>
      </trkpt>
      <trkpt lat="49.04663" lon="7.78712">
        <ele>340.028</ele>
        <time>2020-05-24T13:32:16Z</time>
      </trkpt>
      <trkpt lat="49.04668" lon="7.78719">
        <ele>339.451</ele>
        <time>2020-05-24T13:32:33Z</time>
      </trkpt>
      <trkpt lat="49.0467" lon="7.78732">
        <ele>336.793</ele>
        <time>2020-05-24T13:32:49Z</time>
      </trkpt>
      <trkpt lat="49.04677" lon="7.78741">
        <ele>335.417</ele>
        <time>2020-05-24T13:32:55Z</time>
      </trkpt>
      <trkpt lat="49.04682" lon="7.78761">
        <ele>330.947</ele>
        <time>2020-05-24T13:33:06Z</time>
      </trkpt>
      <trkpt lat="49.04691" lon="7.78782">
        <ele>327.44</ele>
        <time>2020-05-24T13:33:23Z</time>
      </trkpt>
      <trkpt lat="49.04702" lon="7.78791">
        <ele>327.283</ele>
        <time>2020-05-24T13:33:35Z</time>
      </trkpt>
      <trkpt lat="49.04711" lon="7.78797">
        <ele>327.582</ele>
        <time>2020-05-24T13:33:46Z</time>
      </trkpt>
      <trkpt lat="49.04717" lon="7.78802">
        <ele>327.695</ele>
        <time>2020-05-24T13:34:13Z</time>
      </trkpt>
      <trkpt lat="49.04723" lon="7.78809">
        <ele>327.479</ele>
        <time>2020-05-24T13:34:24Z</time>
      </trkpt>
      <trkpt lat="49.0473" lon="7.78824">
        <ele>325.141</ele>
        <time>2020-05-24T13:34:36Z</time>
      </trkpt>
      <trkpt lat="49.04738" lon="7.78838">
        <ele>323.803</ele>
        <time>2020-05-24T13:34:47Z</time>
      </trkpt>
      <trkpt lat="49.04745" lon="7.78848">
        <ele>323.007</ele>
        <time>2020-05-24T13:34:57Z</time>
      </trkpt>
      <trkpt lat="49.0475" lon="7.78859">
        <ele>321.388</ele>
        <time>2020-05-24T13:35:03Z</time>
      </trkpt>
      <trkpt lat="49.04754" lon="7.78866">
        <ele>321.127</ele>
        <time>2020-05-24T13:35:08Z</time>
      </trkpt>
      <trkpt lat="49.04759" lon="7.78872">
        <ele>321.335</ele>
        <time>2020-05-24T13:35:14Z</time>
      </trkpt>
      <trkpt lat="49.04766" lon="7.78887">
        <ele>319.679</ele>
        <time>2020-05-24T13:35:25Z</time>
      </trkpt>
      <trkpt lat="49.04772" lon="7.789">
        <ele>317.449</ele>
        <time>2020-05-24T13:35:36Z</time>
      </trkpt>
      <trkpt lat="49.04776" lon="7.78909">
        <ele>315.758</ele>
        <time>2020-05-24T13:35:42Z</time>
      </trkpt>
      <trkpt lat="49.04782" lon="7.78922">
        <ele>313.726</ele>
        <time>2020-05-24T13:35:48Z</time>
      </trkpt>
      <trkpt lat="49.04777" lon="7.78928">
        <ele>311.019</ele>
        <time>2020-05-24T13:35:54Z</time>
      </trkpt>
      <trkpt lat="49.0477" lon="7.78931">
        <ele>308.443</ele>
        <time>2020-05-24T13:36:05Z</time>
      </trkpt>
      <trkpt lat="49.04759" lon="7.78932">
        <ele>305.205</ele>
        <time>2020-05-24T13:36:16Z</time>
      </trkpt>
      <trkpt lat="49.04751" lon="7.78933">
        <ele>303.133</ele>
        <time>2020-05-24T13:36:22Z</time>
      </trkpt>
      <trkpt lat="49.04743" lon="7.78934">
        <ele>301.153</ele>
        <time>2020-05-24T13:36:28Z</time>
      </trkpt>
      <trkpt lat="49.04736" lon="7.7894">
        <ele>298.496</ele>
        <time>2020-05-24T13:36:40Z</time>
      </trkpt>
      <trkpt lat="49.04722" lon="7.78937">
        <ele>296.642</ele>
        <time>2020-05-24T13:36:50Z</time>
      </trkpt>
      <trkpt lat="49.04712" lon="7.78936">
        <ele>295.598</ele>
        <time>2020-05-24T13:37:01Z</time>
      </trkpt>
      <trkpt lat="49.04701" lon="7.7894">
        <ele>293.504</ele>
        <time>2020-05-24T13:37:12Z</time>
      </trkpt>
      <trkpt lat="49.04694" lon="7.78945">
        <ele>291.931</ele>
        <time>2020-05-24T13:37:17Z</time>
      </trkpt>
      <trkpt lat="49.04686" lon="7.78941">
        <ele>291.79</ele>
        <time>2020-05-24T13:37:28Z</time>
      </trkpt>
      <trkpt lat="49.04674" lon="7.78944">
        <ele>289.837</ele>
        <time>2020-05-24T13:37:40Z</time>
      </trkpt>
      <trkpt lat="49.04666" lon="7.78949">
        <ele>288.379</ele>
        <time>2020-05-24T13:37:45Z</time>
      </trkpt>
      <trkpt lat="49.04657" lon="7.78949">
        <ele>287.65</ele>
        <time>2020-05-24T13:38:02Z</time>
      </trkpt>
      <trkpt lat="49.04651" lon="7.78955">
        <ele>286.166</ele>
        <time>2020-05-24T13:38:18Z</time>
      </trkpt>
      <trkpt lat="49.0464" lon="7.78945">
        <ele>287.011</ele>
        <time>2020-05-24T13:38:29Z</time>
      </trkpt>
      <trkpt lat="49.04631" lon="7.78945">
        <ele>285.784</ele>
        <time>2020-05-24T13:38:40Z</time>
      </trkpt>
      <trkpt lat="49.04623" lon="7.78942">
        <ele>285.07</ele>
        <time>2020-05-24T13:38:56Z</time>
      </trkpt>
      <trkpt lat="49.04615" lon="7.78958">
        <ele>281.485</ele>
        <time>2020-05-24T13:39:06Z</time>
      </trkpt>
      <trkpt lat="49.04607" lon="7.78966">
        <ele>279.896</ele>
        <time>2020-05-24T13:39:12Z</time>
      </trkpt>
      <trkpt lat="49.046" lon="7.78964">
        <ele>280.097</ele>
        <time>2020-05-24T13:39:17Z</time>
      </trkpt>
      <trkpt lat="49.04592" lon="7.78963">
        <ele>280.123</ele>
        <time>2020-05-24T13:39:23Z</time>
      </trkpt>
      <trkpt lat="49.04584" lon="7.78967">
        <ele>279.547</ele>
        <time>2020-05-24T13:39:29Z</time>
      </trkpt>
      <trkpt lat="49.04575" lon="7.78973">
        <ele>278.638</ele>
        <time>2020-05-24T13:39:35Z</time>
      </trkpt>
      <trkpt lat="49.04569" lon="7.78977">
        <ele>278.144</ele>
        <time>2020-05-24T13:39:40Z</time>
      </trkpt>
      <trkpt lat="49.04561" lon="7.78974">
        <ele>278.033</ele>
        <time>2020-05-24T13:39:46Z</time>
      </trkpt>
      <trkpt lat="49.04554" lon="7.78982">
        <ele>277.351</ele>
        <time>2020-05-24T13:39:52Z</time>
      </trkpt>
      <trkpt lat="49.04545" lon="7.78989">
        <ele>276.917</ele>
        <time>2020-05-24T13:39:58Z</time>
      </trkpt>
      <trkpt lat="49.04535" lon="7.78991">
        <ele>276.682</ele>
        <time>2020-05-24T13:40:09Z</time>
      </trkpt>
      <trkpt lat="49.04521" lon="7.78991">
        <ele>276.687</ele>
        <time>2020-05-24T13:40:21Z</time>
      </trkpt>
      <trkpt lat="49.04513" lon="7.78994">
        <ele>276.001</ele>
        <time>2020-05-24T13:40:27Z</time>
      </trkpt>
      <trkpt lat="49.04506" lon="7.78998">
        <ele>275.288</ele>
        <time>2020-05-24T13:40:32Z</time>
      </trkpt>
      <trkpt lat="49.04498" lon="7.79005">
        <ele>274.183</ele>
        <time>2020-05-24T13:40:38Z</time>
      </trkpt>
      <trkpt lat="49.0449" lon="7.79002">
        <ele>274.04</ele>
        <time>2020-05-24T13:40:44Z</time>
      </trkpt>
      <trkpt lat="49.04478" lon="7.79001">
        <ele>273.227</ele>
        <time>2020-05-24T13:40:55Z</time>
      </trkpt>
      <trkpt lat="49.0447" lon="7.79003">
        <ele>272.617</ele>
        <time>2020-05-24T13:41:00Z</time>
      </trkpt>
      <trkpt lat="49.04462" lon="7.79006">
        <ele>272.025</ele>
        <time>2020-05-24T13:41:06Z</time>
      </trkpt>
      <trkpt lat="49.04453" lon="7.79013">
        <ele>270.864</ele>
        <time>2020-05-24T13:41:12Z</time>
      </trkpt>
      <trkpt lat="49.04442" lon="7.79019">
        <ele>269.937</ele>
        <time>2020-05-24T13:41:18Z</time>
      </trkpt>
      <trkpt lat="49.0443" lon="7.7902">
        <ele>269.814</ele>
        <time>2020-05-24T13:41:28Z</time>
      </trkpt>
      <trkpt lat="49.04421" lon="7.79018">
        <ele>270.107</ele>
        <time>2020-05-24T13:41:34Z</time>
      </trkpt>
      <trkpt lat="49.04413" lon="7.79018">
        <ele>269.945</ele>
        <time>2020-05-24T13:41:46Z</time>
      </trkpt>
      <trkpt lat="49.04404" lon="7.79015">
        <ele>270.111</ele>
        <time>2020-05-24T13:41:52Z</time>
      </trkpt>
      <trkpt lat="49.04396" lon="7.79016">
        <ele>269.84</ele>
        <time>2020-05-24T13:42:03Z</time>
      </trkpt>
      <trkpt lat="49.04383" lon="7.79023">
        <ele>268.708</ele>
        <time>2020-05-24T13:42:14Z</time>
      </trkpt>
      <trkpt lat="49.04379" lon="7.79024">
        <ele>268.537</ele>
        <time>2020-05-24T13:47:46Z</time>
      </trkpt>
      <trkpt lat="49.04373" lon="7.79035">
        <ele>268.22</ele>
        <time>2020-05-24T13:47:57Z</time>
      </trkpt>
      <trkpt lat="49.04367" lon="7.79046">
        <ele>268.304</ele>
        <time>2020-05-24T13:48:09Z</time>
      </trkpt>
      <trkpt lat="49.04365" lon="7.79056">
        <ele>268.457</ele>
        <time>2020-05-24T13:48:49Z</time>
      </trkpt>
      <trkpt lat="49.04354" lon="7.79066">
        <ele>269.24</ele>
        <time>2020-05-24T13:48:59Z</time>
      </trkpt>
      <trkpt lat="49.04344" lon="7.79073">
        <ele>268.662</ele>
        <time>2020-05-24T13:49:05Z</time>
      </trkpt>
      <trkpt lat="49.04335" lon="7.79082">
        <ele>268.318</ele>
        <time>2020-05-24T13:49:34Z</time>
      </trkpt>
      <trkpt lat="49.04333" lon="7.79093">
        <ele>269.925</ele>
        <time>2020-05-24T13:49:40Z</time>
      </trkpt>
      <trkpt lat="49.0433" lon="7.79105">
        <ele>272.076</ele>
        <time>2020-05-24T13:49:46Z</time>
      </trkpt>
      <trkpt lat="49.04315" lon="7.79123">
        <ele>272.86</ele>
        <time>2020-05-24T13:50:14Z</time>
      </trkpt>
      <trkpt lat="49.04307" lon="7.79135">
        <ele>273.596</ele>
        <time>2020-05-24T13:50:20Z</time>
      </trkpt>
      <trkpt lat="49.04302" lon="7.79144">
        <ele>275.519</ele>
        <time>2020-05-24T13:50:25Z</time>
      </trkpt>
      <trkpt lat="49.04298" lon="7.79151">
        <ele>277.625</ele>
        <time>2020-05-24T13:50:31Z</time>
      </trkpt>
      <trkpt lat="49.04282" lon="7.7917">
        <ele>282.3</ele>
        <time>2020-05-24T13:50:59Z</time>
      </trkpt>
      <trkpt lat="49.04274" lon="7.79181">
        <ele>285.065</ele>
        <time>2020-05-24T13:51:10Z</time>
      </trkpt>
      <trkpt lat="49.04269" lon="7.79189">
        <ele>286.718</ele>
        <time>2020-05-24T13:51:15Z</time>
      </trkpt>
      <trkpt lat="49.0426" lon="7.79191">
        <ele>286.824</ele>
        <time>2020-05-24T13:51:26Z</time>
      </trkpt>
      <trkpt lat="49.04255" lon="7.79197">
        <ele>288.31</ele>
        <time>2020-05-24T13:51:44Z</time>
      </trkpt>
      <trkpt lat="49.04244" lon="7.79211">
        <ele>292.046</ele>
        <time>2020-05-24T13:52:00Z</time>
      </trkpt>
      <trkpt lat="49.04232" lon="7.79214">
        <ele>292.025</ele>
        <time>2020-05-24T13:52:05Z</time>
      </trkpt>
      <trkpt lat="49.04225" lon="7.79217">
        <ele>292.38</ele>
        <time>2020-05-24T13:52:11Z</time>
      </trkpt>
      <trkpt lat="49.0422" lon="7.79222">
        <ele>293.914</ele>
        <time>2020-05-24T13:52:22Z</time>
      </trkpt>
      <trkpt lat="49.04211" lon="7.79221">
        <ele>293.574</ele>
        <time>2020-05-24T13:52:33Z</time>
      </trkpt>
      <trkpt lat="49.04196" lon="7.7922">
        <ele>293.416</ele>
        <time>2020-05-24T13:52:44Z</time>
      </trkpt>
      <trkpt lat="49.04188" lon="7.79219">
        <ele>294.925</ele>
        <time>2020-05-24T13:52:50Z</time>
      </trkpt>
      <trkpt lat="49.04176" lon="7.79221">
        <ele>298.388</ele>
        <time>2020-05-24T13:52:56Z</time>
      </trkpt>
      <trkpt lat="49.04164" lon="7.79214">
        <ele>299.8</ele>
        <time>2020-05-24T13:53:07Z</time>
      </trkpt>
      <trkpt lat="49.04159" lon="7.79206">
        <ele>299.305</ele>
        <time>2020-05-24T13:53:13Z</time>
      </trkpt>
      <trkpt lat="49.04147" lon="7.79196">
        <ele>300.044</ele>
        <time>2020-05-24T13:53:25Z</time>
      </trkpt>
      <trkpt lat="49.04136" lon="7.79193">
        <ele>302.39</ele>
        <time>2020-05-24T13:53:42Z</time>
      </trkpt>
      <trkpt lat="49.04125" lon="7.79194">
        <ele>305.907</ele>
        <time>2020-05-24T13:53:52Z</time>
      </trkpt>
      <trkpt lat="49.04119" lon="7.79185">
        <ele>304.672</ele>
        <time>2020-05-24T13:54:04Z</time>
      </trkpt>
      <trkpt lat="49.04106" lon="7.79183">
        <ele>307.561</ele>
        <time>2020-05-24T13:54:20Z</time>
      </trkpt>
      <trkpt lat="49.04072" lon="7.79172">
        <ele>313.599</ele>
        <time>2020-05-24T13:55:00Z</time>
      </trkpt>
      <trkpt lat="49.04065" lon="7.79168">
        <ele>314.228</ele>
        <time>2020-05-24T13:55:05Z</time>
      </trkpt>
      <trkpt lat="49.04056" lon="7.79168">
        <ele>316.177</ele>
        <time>2020-05-24T13:55:17Z</time>
      </trkpt>
      <trkpt lat="49.04044" lon="7.79159">
        <ele>316.489</ele>
        <time>2020-05-24T13:55:29Z</time>
      </trkpt>
      <trkpt lat="49.04039" lon="7.79153">
        <ele>315.392</ele>
        <time>2020-05-24T13:55:34Z</time>
      </trkpt>
      <trkpt lat="49.04003" lon="7.79139">
        <ele>319.163</ele>
        <time>2020-05-24T13:56:25Z</time>
      </trkpt>
      <trkpt lat="49.03995" lon="7.79139">
        <ele>320.992</ele>
        <time>2020-05-24T13:56:30Z</time>
      </trkpt>
      <trkpt lat="49.03988" lon="7.79134">
        <ele>320.831</ele>
        <time>2020-05-24T13:56:35Z</time>
      </trkpt>
      <trkpt lat="49.03977" lon="7.79128">
        <ele>320.542</ele>
        <time>2020-05-24T13:56:47Z</time>
      </trkpt>
      <trkpt lat="49.03962" lon="7.79124">
        <ele>321.432</ele>
        <time>2020-05-24T13:56:58Z</time>
      </trkpt>
      <trkpt lat="49.03949" lon="7.7913">
        <ele>325.706</ele>
        <time>2020-05-24T13:57:15Z</time>
      </trkpt>
      <trkpt lat="49.03939" lon="7.7913">
        <ele>327.159</ele>
        <time>2020-05-24T13:57:32Z</time>
      </trkpt>
      <trkpt lat="49.03932" lon="7.79127">
        <ele>326.982</ele>
        <time>2020-05-24T13:57:38Z</time>
      </trkpt>
      <trkpt lat="49.03925" lon="7.79128">
        <ele>328.614</ele>
        <time>2020-05-24T13:57:43Z</time>
      </trkpt>
      <trkpt lat="49.03906" lon="7.79124">
        <ele>329.344</ele>
        <time>2020-05-24T13:58:06Z</time>
      </trkpt>
      <trkpt lat="49.03898" lon="7.79124">
        <ele>330.174</ele>
        <time>2020-05-24T13:58:17Z</time>
      </trkpt>
      <trkpt lat="49.0389" lon="7.79125">
        <ele>331.519</ele>
        <time>2020-05-24T13:58:23Z</time>
      </trkpt>
      <trkpt lat="49.03879" lon="7.79126">
        <ele>332.142</ele>
        <time>2020-05-24T13:58:34Z</time>
      </trkpt>
      <trkpt lat="49.03873" lon="7.79123">
        <ele>331.194</ele>
        <time>2020-05-24T13:58:46Z</time>
      </trkpt>
      <trkpt lat="49.0386" lon="7.79128">
        <ele>333.231</ele>
        <time>2020-05-24T13:58:57Z</time>
      </trkpt>
      <trkpt lat="49.03847" lon="7.79134">
        <ele>335.334</ele>
        <time>2020-05-24T13:59:24Z</time>
      </trkpt>
      <trkpt lat="49.03837" lon="7.79134">
        <ele>334.937</ele>
        <time>2020-05-24T13:59:30Z</time>
      </trkpt>
      <trkpt lat="49.03827" lon="7.79134">
        <ele>335.199</ele>
        <time>2020-05-24T13:59:36Z</time>
      </trkpt>
      <trkpt lat="49.03812" lon="7.79134">
        <ele>335.207</ele>
        <time>2020-05-24T13:59:47Z</time>
      </trkpt>
      <trkpt lat="49.03804" lon="7.79138">
        <ele>336.521</ele>
        <time>2020-05-24T13:59:53Z</time>
      </trkpt>
      <trkpt lat="49.03797" lon="7.79145">
        <ele>338.969</ele>
        <time>2020-05-24T13:59:58Z</time>
      </trkpt>
      <trkpt lat="49.0379" lon="7.79148">
        <ele>340.064</ele>
        <time>2020-05-24T14:00:04Z</time>
      </trkpt>
      <trkpt lat="49.03783" lon="7.79153">
        <ele>341.404</ele>
        <time>2020-05-24T14:00:10Z</time>
      </trkpt>
      <trkpt lat="49.03775" lon="7.79155">
        <ele>341.41</ele>
        <time>2020-05-24T14:00:21Z</time>
      </trkpt>
      <trkpt lat="49.0377" lon="7.79159">
        <ele>341.923</ele>
        <time>2020-05-24T14:00:26Z</time>
      </trkpt>
      <trkpt lat="49.03758" lon="7.79163">
        <ele>340.951</ele>
        <time>2020-05-24T14:00:37Z</time>
      </trkpt>
      <trkpt lat="49.03753" lon="7.79172">
        <ele>343.411</ele>
        <time>2020-05-24T14:00:43Z</time>
      </trkpt>
      <trkpt lat="49.0375" lon="7.79181">
        <ele>346.133</ele>
        <time>2020-05-24T14:00:49Z</time>
      </trkpt>
      <trkpt lat="49.03742" lon="7.79193">
        <ele>347.875</ele>
        <time>2020-05-24T14:00:59Z</time>
      </trkpt>
      <trkpt lat="49.03736" lon="7.79201">
        <ele>348.539</ele>
        <time>2020-05-24T14:01:05Z</time>
      </trkpt>
      <trkpt lat="49.0373" lon="7.79204">
        <ele>347.551</ele>
        <time>2020-05-24T14:01:10Z</time>
      </trkpt>
      <trkpt lat="49.03725" lon="7.7921">
        <ele>347.671</ele>
        <time>2020-05-24T14:01:16Z</time>
      </trkpt>
      <trkpt lat="49.0372" lon="7.79222">
        <ele>349.925</ele>
        <time>2020-05-24T14:01:27Z</time>
      </trkpt>
      <trkpt lat="49.03713" lon="7.79229">
        <ele>349.37</ele>
        <time>2020-05-24T14:01:33Z</time>
      </trkpt>
      <trkpt lat="49.0371" lon="7.79237">
        <ele>350.242</ele>
        <time>2020-05-24T14:01:39Z</time>
      </trkpt>
      <trkpt lat="49.03705" lon="7.79247">
        <ele>351.682</ele>
        <time>2020-05-24T14:01:51Z</time>
      </trkpt>
      <trkpt lat="49.03701" lon="7.79256">
        <ele>352.662</ele>
        <time>2020-05-24T14:01:56Z</time>
      </trkpt>
      <trkpt lat="49.03692" lon="7.79262">
        <ele>351.926</ele>
        <time>2020-05-24T14:02:02Z</time>
      </trkpt>
      <trkpt lat="49.03677" lon="7.79262">
        <ele>351.726</ele>
        <time>2020-05-24T14:02:14Z</time>
      </trkpt>
      <trkpt lat="49.03666" lon="7.79263">
        <ele>352.153</ele>
        <time>2020-05-24T14:02:25Z</time>
      </trkpt>
      <trkpt lat="49.03659" lon="7.79254">
        <ele>351.827</ele>
        <time>2020-05-24T14:02:37Z</time>
      </trkpt>
      <trkpt lat="49.0365" lon="7.79241">
        <ele>351.609</ele>
        <time>2020-05-24T14:02:42Z</time>
      </trkpt>
      <trkpt lat="49.03642" lon="7.7923">
        <ele>351.731</ele>
        <time>2020-05-24T14:02:48Z</time>
      </trkpt>
      <trkpt lat="49.03634" lon="7.79215">
        <ele>352.708</ele>
        <time>2020-05-24T14:02:59Z</time>
      </trkpt>
      <trkpt lat="49.03631" lon="7.79205">
        <ele>352.59</ele>
        <time>2020-05-24T14:03:05Z</time>
      </trkpt>
      <trkpt lat="49.03627" lon="7.79198">
        <ele>353.637</ele>
        <time>2020-05-24T14:03:11Z</time>
      </trkpt>
      <trkpt lat="49.03623" lon="7.79182">
        <ele>352.457</ele>
        <time>2020-05-24T14:03:22Z</time>
      </trkpt>
      <trkpt lat="49.03619" lon="7.79174">
        <ele>352.839</ele>
        <time>2020-05-24T14:03:28Z</time>
      </trkpt>
      <trkpt lat="49.03608" lon="7.79165">
        <ele>355.958</ele>
        <time>2020-05-24T14:03:39Z</time>
      </trkpt>
      <trkpt lat="49.03599" lon="7.79161">
        <ele>358.82</ele>
        <time>2020-05-24T14:03:45Z</time>
      </trkpt>
      <trkpt lat="49.03595" lon="7.7915">
        <ele>358.241</ele>
        <time>2020-05-24T14:03:51Z</time>
      </trkpt>
      <trkpt lat="49.03587" lon="7.79132">
        <ele>357.664</ele>
        <time>2020-05-24T14:04:02Z</time>
      </trkpt>
      <trkpt lat="49.03583" lon="7.7912">
        <ele>355.612</ele>
        <time>2020-05-24T14:04:08Z</time>
      </trkpt>
      <trkpt lat="49.03573" lon="7.79102">
        <ele>354.688</ele>
        <time>2020-05-24T14:04:24Z</time>
      </trkpt>
      <trkpt lat="49.03564" lon="7.79095">
        <ele>356.8</ele>
        <time>2020-05-24T14:04:35Z</time>
      </trkpt>
      <trkpt lat="49.03555" lon="7.79087">
        <ele>358.035</ele>
        <time>2020-05-24T14:04:46Z</time>
      </trkpt>
      <trkpt lat="49.03546" lon="7.79079">
        <ele>359.586</ele>
        <time>2020-05-24T14:04:52Z</time>
      </trkpt>
      <trkpt lat="49.03538" lon="7.7907">
        <ele>359.951</ele>
        <time>2020-05-24T14:04:58Z</time>
      </trkpt>
      <trkpt lat="49.03536" lon="7.79062">
        <ele>358.748</ele>
        <time>2020-05-24T14:05:04Z</time>
      </trkpt>
      <trkpt lat="49.03524" lon="7.79049">
        <ele>359.92</ele>
        <time>2020-05-24T14:05:15Z</time>
      </trkpt>
      <trkpt lat="49.0352" lon="7.79042">
        <ele>360.117</ele>
        <time>2020-05-24T14:05:21Z</time>
      </trkpt>
      <trkpt lat="49.03502" lon="7.79025">
        <ele>361.743</ele>
        <time>2020-05-24T14:05:43Z</time>
      </trkpt>
      <trkpt lat="49.03498" lon="7.79018">
        <ele>361.761</ele>
        <time>2020-05-24T14:05:49Z</time>
      </trkpt>
      <trkpt lat="49.03489" lon="7.79008">
        <ele>362.748</ele>
        <time>2020-05-24T14:06:00Z</time>
      </trkpt>
      <trkpt lat="49.03483" lon="7.79004">
        <ele>363.912</ele>
        <time>2020-05-24T14:06:05Z</time>
      </trkpt>
      <trkpt lat="49.03478" lon="7.78998">
        <ele>364.704</ele>
        <time>2020-05-24T14:06:11Z</time>
      </trkpt>
      <trkpt lat="49.03471" lon="7.78992">
        <ele>365.4</ele>
        <time>2020-05-24T14:06:17Z</time>
      </trkpt>
      <trkpt lat="49.03469" lon="7.78982">
        <ele>363.879</ele>
        <time>2020-05-24T14:06:23Z</time>
      </trkpt>
      <trkpt lat="49.03464" lon="7.78977">
        <ele>363.961</ele>
        <time>2020-05-24T14:06:29Z</time>
      </trkpt>
      <trkpt lat="49.03458" lon="7.78968">
        <ele>363.645</ele>
        <time>2020-05-24T14:06:35Z</time>
      </trkpt>
      <trkpt lat="49.03451" lon="7.78961">
        <ele>364.374</ele>
        <time>2020-05-24T14:06:41Z</time>
      </trkpt>
      <trkpt lat="49.03446" lon="7.78955">
        <ele>364.521</ele>
        <time>2020-05-24T14:06:47Z</time>
      </trkpt>
      <trkpt lat="49.03441" lon="7.78949">
        <ele>365.122</ele>
        <time>2020-05-24T14:06:52Z</time>
      </trkpt>
      <trkpt lat="49.03436" lon="7.78942">
        <ele>366.13</ele>
        <time>2020-05-24T14:06:57Z</time>
      </trkpt>
      <trkpt lat="49.03429" lon="7.78937">
        <ele>368.004</ele>
        <time>2020-05-24T14:07:03Z</time>
      </trkpt>
      <trkpt lat="49.03423" lon="7.78926">
        <ele>368.694</ele>
        <time>2020-05-24T14:07:14Z</time>
      </trkpt>
      <trkpt lat="49.03417" lon="7.78921">
        <ele>370.835</ele>
        <time>2020-05-24T14:07:19Z</time>
      </trkpt>
      <trkpt lat="49.03413" lon="7.78914">
        <ele>370.136</ele>
        <time>2020-05-24T14:07:25Z</time>
      </trkpt>
      <trkpt lat="49.0341" lon="7.78903">
        <ele>368.374</ele>
        <time>2020-05-24T14:07:31Z</time>
      </trkpt>
      <trkpt lat="49.03405" lon="7.78898">
        <ele>368.39</ele>
        <time>2020-05-24T14:07:37Z</time>
      </trkpt>
      <trkpt lat="49.03396" lon="7.78894">
        <ele>369.303</ele>
        <time>2020-05-24T14:07:43Z</time>
      </trkpt>
      <trkpt lat="49.03387" lon="7.78884">
        <ele>369.826</ele>
        <time>2020-05-24T14:07:49Z</time>
      </trkpt>
      <trkpt lat="49.03379" lon="7.78882">
        <ele>371.178</ele>
        <time>2020-05-24T14:08:01Z</time>
      </trkpt>
      <trkpt lat="49.03374" lon="7.78873">
        <ele>371.135</ele>
        <time>2020-05-24T14:08:07Z</time>
      </trkpt>
      <trkpt lat="49.03364" lon="7.7886">
        <ele>372.075</ele>
        <time>2020-05-24T14:08:18Z</time>
      </trkpt>
      <trkpt lat="49.03359" lon="7.78853">
        <ele>372.155</ele>
        <time>2020-05-24T14:08:29Z</time>
      </trkpt>
      <trkpt lat="49.03353" lon="7.78849">
        <ele>372.017</ele>
        <time>2020-05-24T14:08:35Z</time>
      </trkpt>
      <trkpt lat="49.03345" lon="7.78845">
        <ele>371.823</ele>
        <time>2020-05-24T14:08:40Z</time>
      </trkpt>
      <trkpt lat="49.03339" lon="7.78832">
        <ele>370.726</ele>
        <time>2020-05-24T14:08:46Z</time>
      </trkpt>
      <trkpt lat="49.03334" lon="7.78827">
        <ele>370.497</ele>
        <time>2020-05-24T14:08:52Z</time>
      </trkpt>
      <trkpt lat="49.0333" lon="7.78818">
        <ele>369.477</ele>
        <time>2020-05-24T14:08:58Z</time>
      </trkpt>
      <trkpt lat="49.03325" lon="7.78813">
        <ele>368.492</ele>
        <time>2020-05-24T14:09:04Z</time>
      </trkpt>
      <trkpt lat="49.03317" lon="7.78816">
        <ele>367.709</ele>
        <time>2020-05-24T14:09:33Z</time>
      </trkpt>
      <trkpt lat="49.03317" lon="7.78801">
        <ele>367.092</ele>
        <time>2020-05-24T14:14:34Z</time>
      </trkpt>
      <trkpt lat="49.03323" lon="7.78793">
        <ele>367.162</ele>
        <time>2020-05-24T14:14:46Z</time>
      </trkpt>
      <trkpt lat="49.03329" lon="7.78786">
        <ele>366.883</ele>
        <time>2020-05-24T14:14:58Z</time>
      </trkpt>
      <trkpt lat="49.0334" lon="7.78777">
        <ele>364.615</ele>
        <time>2020-05-24T14:15:15Z</time>
      </trkpt>
      <trkpt lat="49.0335" lon="7.78771">
        <ele>361.866</ele>
        <time>2020-05-24T14:15:27Z</time>
      </trkpt>
      <trkpt lat="49.03359" lon="7.78765">
        <ele>359.246</ele>
        <time>2020-05-24T14:15:38Z</time>
      </trkpt>
      <trkpt lat="49.03362" lon="7.78757">
        <ele>356.742</ele>
        <time>2020-05-24T14:16:06Z</time>
      </trkpt>
      <trkpt lat="49.03358" lon="7.78742">
        <ele>355.828</ele>
        <time>2020-05-24T14:16:18Z</time>
      </trkpt>
      <trkpt lat="49.03353" lon="7.7873">
        <ele>355.764</ele>
        <time>2020-05-24T14:16:29Z</time>
      </trkpt>
      <trkpt lat="49.0335" lon="7.78721">
        <ele>355.414</ele>
        <time>2020-05-24T14:16:34Z</time>
      </trkpt>
      <trkpt lat="49.03346" lon="7.78709">
        <ele>354.322</ele>
        <time>2020-05-24T14:16:40Z</time>
      </trkpt>
      <trkpt lat="49.03345" lon="7.78696">
        <ele>352.24</ele>
        <time>2020-05-24T14:16:51Z</time>
      </trkpt>
      <trkpt lat="49.03337" lon="7.78683">
        <ele>352.756</ele>
        <time>2020-05-24T14:17:02Z</time>
      </trkpt>
      <trkpt lat="49.03334" lon="7.78668">
        <ele>351.037</ele>
        <time>2020-05-24T14:17:08Z</time>
      </trkpt>
      <trkpt lat="49.03331" lon="7.78652">
        <ele>349.226</ele>
        <time>2020-05-24T14:17:19Z</time>
      </trkpt>
      <trkpt lat="49.0333" lon="7.78639">
        <ele>347.128</ele>
        <time>2020-05-24T14:17:30Z</time>
      </trkpt>
      <trkpt lat="49.03326" lon="7.78629">
        <ele>346.764</ele>
        <time>2020-05-24T14:17:35Z</time>
      </trkpt>
      <trkpt lat="49.03324" lon="7.78619">
        <ele>345.846</ele>
        <time>2020-05-24T14:17:41Z</time>
      </trkpt>
      <trkpt lat="49.03321" lon="7.78609">
        <ele>344.977</ele>
        <time>2020-05-24T14:17:47Z</time>
      </trkpt>
      <trkpt lat="49.03316" lon="7.78601">
        <ele>344.765</ele>
        <time>2020-05-24T14:17:52Z</time>
      </trkpt>
      <trkpt lat="49.03314" lon="7.78587">
        <ele>342.083</ele>
        <time>2020-05-24T14:18:03Z</time>
      </trkpt>
      <trkpt lat="49.03308" lon="7.78573">
        <ele>341.244</ele>
        <time>2020-05-24T14:18:14Z</time>
      </trkpt>
      <trkpt lat="49.03306" lon="7.7856">
        <ele>339.032</ele>
        <time>2020-05-24T14:18:26Z</time>
      </trkpt>
      <trkpt lat="49.03302" lon="7.78544">
        <ele>336.953</ele>
        <time>2020-05-24T14:18:37Z</time>
      </trkpt>
      <trkpt lat="49.03296" lon="7.78534">
        <ele>337.051</ele>
        <time>2020-05-24T14:18:43Z</time>
      </trkpt>
      <trkpt lat="49.03295" lon="7.78517">
        <ele>333.458</ele>
        <time>2020-05-24T14:18:54Z</time>
      </trkpt>
      <trkpt lat="49.03292" lon="7.78508">
        <ele>332.514</ele>
        <time>2020-05-24T14:19:00Z</time>
      </trkpt>
      <trkpt lat="49.03289" lon="7.785">
        <ele>331.645</ele>
        <time>2020-05-24T14:19:06Z</time>
      </trkpt>
      <trkpt lat="49.03284" lon="7.78491">
        <ele>331.288</ele>
        <time>2020-05-24T14:19:17Z</time>
      </trkpt>
      <trkpt lat="49.0328" lon="7.78477">
        <ele>329.183</ele>
        <time>2020-05-24T14:19:28Z</time>
      </trkpt>
      <trkpt lat="49.03276" lon="7.7847">
        <ele>329.029</ele>
        <time>2020-05-24T14:19:34Z</time>
      </trkpt>
      <trkpt lat="49.03272" lon="7.78454">
        <ele>326.494</ele>
        <time>2020-05-24T14:19:44Z</time>
      </trkpt>
      <trkpt lat="49.03266" lon="7.78447">
        <ele>326.824</ele>
        <time>2020-05-24T14:19:50Z</time>
      </trkpt>
      <trkpt lat="49.03262" lon="7.78439">
        <ele>326.488</ele>
        <time>2020-05-24T14:19:56Z</time>
      </trkpt>
      <trkpt lat="49.03257" lon="7.78423">
        <ele>324.708</ele>
        <time>2020-05-24T14:20:08Z</time>
      </trkpt>
      <trkpt lat="49.03251" lon="7.78417">
        <ele>325.722</ele>
        <time>2020-05-24T14:20:13Z</time>
      </trkpt>
      <trkpt lat="49.03244" lon="7.78413">
        <ele>327.572</ele>
        <time>2020-05-24T14:20:19Z</time>
      </trkpt>
      <trkpt lat="49.03238" lon="7.78406">
        <ele>328.681</ele>
        <time>2020-05-24T14:20:25Z</time>
      </trkpt>
      <trkpt lat="49.03232" lon="7.78388">
        <ele>327.609</ele>
        <time>2020-05-24T14:20:37Z</time>
      </trkpt>
      <trkpt lat="49.0323" lon="7.7837">
        <ele>325.663</ele>
        <time>2020-05-24T14:20:48Z</time>
      </trkpt>
      <trkpt lat="49.03227" lon="7.78361">
        <ele>325.806</ele>
        <time>2020-05-24T14:20:54Z</time>
      </trkpt>
      <trkpt lat="49.03224" lon="7.78352">
        <ele>325.749</ele>
        <time>2020-05-24T14:20:59Z</time>
      </trkpt>
      <trkpt lat="49.03221" lon="7.78338">
        <ele>324.252</ele>
        <time>2020-05-24T14:21:11Z</time>
      </trkpt>
      <trkpt lat="49.03218" lon="7.78326">
        <ele>323.723</ele>
        <time>2020-05-24T14:21:17Z</time>
      </trkpt>
      <trkpt lat="49.03215" lon="7.78311">
        <ele>323.147</ele>
        <time>2020-05-24T14:21:29Z</time>
      </trkpt>
      <trkpt lat="49.03214" lon="7.78299">
        <ele>321.572</ele>
        <time>2020-05-24T14:21:35Z</time>
      </trkpt>
      <trkpt lat="49.03208" lon="7.78289">
        <ele>322.131</ele>
        <time>2020-05-24T14:21:46Z</time>
      </trkpt>
      <trkpt lat="49.03203" lon="7.78271">
        <ele>320.635</ele>
        <time>2020-05-24T14:22:03Z</time>
      </trkpt>
      <trkpt lat="49.03201" lon="7.7826">
        <ele>319.068</ele>
        <time>2020-05-24T14:22:09Z</time>
      </trkpt>
      <trkpt lat="49.03193" lon="7.78246">
        <ele>319.534</ele>
        <time>2020-05-24T14:22:21Z</time>
      </trkpt>
      <trkpt lat="49.03192" lon="7.78233">
        <ele>317.645</ele>
        <time>2020-05-24T14:22:27Z</time>
      </trkpt>
      <trkpt lat="49.03193" lon="7.78222">
        <ele>314.642</ele>
        <time>2020-05-24T14:22:37Z</time>
      </trkpt>
      <trkpt lat="49.03191" lon="7.78209">
        <ele>312.423</ele>
        <time>2020-05-24T14:22:48Z</time>
      </trkpt>
      <trkpt lat="49.03191" lon="7.78195">
        <ele>308.929</ele>
        <time>2020-05-24T14:23:00Z</time>
      </trkpt>
      <trkpt lat="49.03188" lon="7.78185">
        <ele>308.249</ele>
        <time>2020-05-24T14:23:06Z</time>
      </trkpt>
      <trkpt lat="49.03183" lon="7.78178">
        <ele>309.009</ele>
        <time>2020-05-24T14:23:17Z</time>
      </trkpt>
      <trkpt lat="49.03181" lon="7.78166">
        <ele>307.005</ele>
        <time>2020-05-24T14:23:22Z</time>
      </trkpt>
      <trkpt lat="49.03183" lon="7.78156">
        <ele>304.045</ele>
        <time>2020-05-24T14:23:27Z</time>
      </trkpt>
      <trkpt lat="49.03183" lon="7.78137">
        <ele>299.895</ele>
        <time>2020-05-24T14:23:39Z</time>
      </trkpt>
      <trkpt lat="49.03179" lon="7.7812">
        <ele>297.674</ele>
        <time>2020-05-24T14:23:50Z</time>
      </trkpt>
      <trkpt lat="49.03177" lon="7.78107">
        <ele>295.41</ele>
        <time>2020-05-24T14:23:56Z</time>
      </trkpt>
      <trkpt lat="49.03177" lon="7.78091">
        <ele>292.289</ele>
        <time>2020-05-24T14:24:06Z</time>
      </trkpt>
      <trkpt lat="49.03173" lon="7.78071">
        <ele>289.73</ele>
        <time>2020-05-24T14:24:18Z</time>
      </trkpt>
      <trkpt lat="49.03168" lon="7.78064">
        <ele>290.205</ele>
        <time>2020-05-24T14:24:24Z</time>
      </trkpt>
      <trkpt lat="49.03165" lon="7.7805">
        <ele>288.67</ele>
        <time>2020-05-24T14:24:35Z</time>
      </trkpt>
      <trkpt lat="49.03164" lon="7.78034">
        <ele>285.266</ele>
        <time>2020-05-24T14:24:47Z</time>
      </trkpt>
      <trkpt lat="49.03163" lon="7.78021">
        <ele>282.922</ele>
        <time>2020-05-24T14:24:58Z</time>
      </trkpt>
      <trkpt lat="49.03161" lon="7.78013">
        <ele>281.632</ele>
        <time>2020-05-24T14:25:03Z</time>
      </trkpt>
      <trkpt lat="49.03163" lon="7.7799">
        <ele>275.283</ele>
        <time>2020-05-24T14:25:14Z</time>
      </trkpt>
      <trkpt lat="49.0316" lon="7.77982">
        <ele>274.903</ele>
        <time>2020-05-24T14:25:19Z</time>
      </trkpt>
      <trkpt lat="49.03154" lon="7.77975">
        <ele>275.654</ele>
        <time>2020-05-24T14:25:31Z</time>
      </trkpt>
      <trkpt lat="49.0315" lon="7.77963">
        <ele>274.633</ele>
        <time>2020-05-24T14:25:47Z</time>
      </trkpt>
      <trkpt lat="49.0315" lon="7.77941">
        <ele>270.246</ele>
        <time>2020-05-24T14:25:58Z</time>
      </trkpt>
      <trkpt lat="49.03144" lon="7.77932">
        <ele>270.012</ele>
        <time>2020-05-24T14:26:04Z</time>
      </trkpt>
      <trkpt lat="49.03141" lon="7.77921">
        <ele>268.513</ele>
        <time>2020-05-24T14:26:10Z</time>
      </trkpt>
      <trkpt lat="49.03135" lon="7.77911">
        <ele>268.106</ele>
        <time>2020-05-24T14:26:16Z</time>
      </trkpt>
      <trkpt lat="49.0313" lon="7.77898">
        <ele>266.822</ele>
        <time>2020-05-24T14:26:38Z</time>
      </trkpt>
      <trkpt lat="49.03122" lon="7.77888">
        <ele>266.596</ele>
        <time>2020-05-24T14:26:49Z</time>
      </trkpt>
      <trkpt lat="49.03118" lon="7.77881">
        <ele>266.235</ele>
        <time>2020-05-24T14:26:54Z</time>
      </trkpt>
      <trkpt lat="49.03111" lon="7.77872">
        <ele>265.824</ele>
        <time>2020-05-24T14:27:00Z</time>
      </trkpt>
      <trkpt lat="49.03103" lon="7.77861">
        <ele>264.702</ele>
        <time>2020-05-24T14:27:11Z</time>
      </trkpt>
      <trkpt lat="49.031" lon="7.77852">
        <ele>263.063</ele>
        <time>2020-05-24T14:27:17Z</time>
      </trkpt>
      <trkpt lat="49.03098" lon="7.77842">
        <ele>260.832</ele>
        <time>2020-05-24T14:27:22Z</time>
      </trkpt>
      <trkpt lat="49.03091" lon="7.77832">
        <ele>259.193</ele>
        <time>2020-05-24T14:27:27Z</time>
      </trkpt>
      <trkpt lat="49.03085" lon="7.77827">
        <ele>259.197</ele>
        <time>2020-05-24T14:27:33Z</time>
      </trkpt>
      <trkpt lat="49.03078" lon="7.77821">
        <ele>259.094</ele>
        <time>2020-05-24T14:27:39Z</time>
      </trkpt>
      <trkpt lat="49.03068" lon="7.77819">
        <ele>260.757</ele>
        <time>2020-05-24T14:27:50Z</time>
      </trkpt>
      <trkpt lat="49.03054" lon="7.77819">
        <ele>264.067</ele>
        <time>2020-05-24T14:28:00Z</time>
      </trkpt>
      <trkpt lat="49.03042" lon="7.77824">
        <ele>269.783</ele>
        <time>2020-05-24T14:28:12Z</time>
      </trkpt>
      <trkpt lat="49.03028" lon="7.77827">
        <ele>275.725</ele>
        <time>2020-05-24T14:28:28Z</time>
      </trkpt>
      <trkpt lat="49.03025" lon="7.77819">
        <ele>275.797</ele>
        <time>2020-05-24T14:28:33Z</time>
      </trkpt>
      <trkpt lat="49.0302" lon="7.77811">
        <ele>276.484</ele>
        <time>2020-05-24T14:28:39Z</time>
      </trkpt>
      <trkpt lat="49.03017" lon="7.77798">
        <ele>276.01</ele>
        <time>2020-05-24T14:28:45Z</time>
      </trkpt>
      <trkpt lat="49.03021" lon="7.77775">
        <ele>270.247</ele>
        <time>2020-05-24T14:28:56Z</time>
      </trkpt>
      <trkpt lat="49.03025" lon="7.77762">
        <ele>267.237</ele>
        <time>2020-05-24T14:29:02Z</time>
      </trkpt>
      <trkpt lat="49.03026" lon="7.77747">
        <ele>266.11</ele>
        <time>2020-05-24T14:29:12Z</time>
      </trkpt>
      <trkpt lat="49.03023" lon="7.77733">
        <ele>267.662</ele>
        <time>2020-05-24T14:29:18Z</time>
      </trkpt>
      <trkpt lat="49.03024" lon="7.77721">
        <ele>267.096</ele>
        <time>2020-05-24T14:29:24Z</time>
      </trkpt>
      <trkpt lat="49.03027" lon="7.77712">
        <ele>265.504</ele>
        <time>2020-05-24T14:29:30Z</time>
      </trkpt>
      <trkpt lat="49.03035" lon="7.77696">
        <ele>261.8</ele>
        <time>2020-05-24T14:29:41Z</time>
      </trkpt>
      <trkpt lat="49.03043" lon="7.77669">
        <ele>257.357</ele>
        <time>2020-05-24T14:29:53Z</time>
      </trkpt>
      <trkpt lat="49.03043" lon="7.77653">
        <ele>257.352</ele>
        <time>2020-05-24T14:30:04Z</time>
      </trkpt>
      <trkpt lat="49.03039" lon="7.77641">
        <ele>258.572</ele>
        <time>2020-05-24T14:30:10Z</time>
      </trkpt>
      <trkpt lat="49.03038" lon="7.77626">
        <ele>258.056</ele>
        <time>2020-05-24T14:30:21Z</time>
      </trkpt>
      <trkpt lat="49.0304" lon="7.77609">
        <ele>256.549</ele>
        <time>2020-05-24T14:30:31Z</time>
      </trkpt>
      <trkpt lat="49.03036" lon="7.77601">
        <ele>257.803</ele>
        <time>2020-05-24T14:30:37Z</time>
      </trkpt>
      <trkpt lat="49.03033" lon="7.77589">
        <ele>258.625</ele>
        <time>2020-05-24T14:30:48Z</time>
      </trkpt>
      <trkpt lat="49.03033" lon="7.77577">
        <ele>258.008</ele>
        <time>2020-05-24T14:30:54Z</time>
      </trkpt>
      <trkpt lat="49.03025" lon="7.77542">
        <ele>257.379</ele>
        <time>2020-05-24T14:31:11Z</time>
      </trkpt>
      <trkpt lat="49.03023" lon="7.7753">
        <ele>256.627</ele>
        <time>2020-05-24T14:31:16Z</time>
      </trkpt>
      <trkpt lat="49.03021" lon="7.77517">
        <ele>255.929</ele>
        <time>2020-05-24T14:31:27Z</time>
      </trkpt>
      <trkpt lat="49.03018" lon="7.77505">
        <ele>255.38</ele>
        <time>2020-05-24T14:31:38Z</time>
      </trkpt>
      <trkpt lat="49.03017" lon="7.77483">
        <ele>253.396</ele>
        <time>2020-05-24T14:32:01Z</time>
      </trkpt>
      <trkpt lat="49.03016" lon="7.7747">
        <ele>252.113</ele>
        <time>2020-05-24T14:32:07Z</time>
      </trkpt>
      <trkpt lat="49.03013" lon="7.7746">
        <ele>251.823</ele>
        <time>2020-05-24T14:32:12Z</time>
      </trkpt>
      <trkpt lat="49.0301" lon="7.7745">
        <ele>251.723</ele>
        <time>2020-05-24T14:32:17Z</time>
      </trkpt>
      <trkpt lat="49.03009" lon="7.77439">
        <ele>250.968</ele>
        <time>2020-05-24T14:32:23Z</time>
      </trkpt>
      <trkpt lat="49.03012" lon="7.77426">
        <ele>249.15</ele>
        <time>2020-05-24T14:32:33Z</time>
      </trkpt>
      <trkpt lat="49.03011" lon="7.77411">
        <ele>248.295</ele>
        <time>2020-05-24T14:32:39Z</time>
      </trkpt>
      <trkpt lat="49.03013" lon="7.77399">
        <ele>247.083</ele>
        <time>2020-05-24T14:32:44Z</time>
      </trkpt>
      <trkpt lat="49.03008" lon="7.77385">
        <ele>247.326</ele>
        <time>2020-05-24T14:32:50Z</time>
      </trkpt>
      <trkpt lat="49.03006" lon="7.77374">
        <ele>246.604</ele>
        <time>2020-05-24T14:32:56Z</time>
      </trkpt>
      <trkpt lat="49.03005" lon="7.77362">
        <ele>245.563</ele>
        <time>2020-05-24T14:33:01Z</time>
      </trkpt>
      <trkpt lat="49.03004" lon="7.77341">
        <ele>245.183</ele>
        <time>2020-05-24T14:33:13Z</time>
      </trkpt>
      <trkpt lat="49.03001" lon="7.77329">
        <ele>245.575</ele>
        <time>2020-05-24T14:33:19Z</time>
      </trkpt>
      <trkpt lat="49.03001" lon="7.77317">
        <ele>245.034</ele>
        <time>2020-05-24T14:33:25Z</time>
      </trkpt>
      <trkpt lat="49.03002" lon="7.77306">
        <ele>244.577</ele>
        <time>2020-05-24T14:33:36Z</time>
      </trkpt>
      <trkpt lat="49.03001" lon="7.77288">
        <ele>244.08</ele>
        <time>2020-05-24T14:33:47Z</time>
      </trkpt>
      <trkpt lat="49.02998" lon="7.7727">
        <ele>244.064</ele>
        <time>2020-05-24T14:33:53Z</time>
      </trkpt>
      <trkpt lat="49.02997" lon="7.77258">
        <ele>243.731</ele>
        <time>2020-05-24T14:33:59Z</time>
      </trkpt>
      <trkpt lat="49.03001" lon="7.77247">
        <ele>242.76</ele>
        <time>2020-05-24T14:34:05Z</time>
      </trkpt>
      <trkpt lat="49.03002" lon="7.7723">
        <ele>241.856</ele>
        <time>2020-05-24T14:34:16Z</time>
      </trkpt>
      <trkpt lat="49.03003" lon="7.77218">
        <ele>241.122</ele>
        <time>2020-05-24T14:34:22Z</time>
      </trkpt>
      <trkpt lat="49.03006" lon="7.77196">
        <ele>240.039</ele>
        <time>2020-05-24T14:34:33Z</time>
      </trkpt>
      <trkpt lat="49.03008" lon="7.77183">
        <ele>239.193</ele>
        <time>2020-05-24T14:34:38Z</time>
      </trkpt>
      <trkpt lat="49.03009" lon="7.77169">
        <ele>238.37</ele>
        <time>2020-05-24T14:34:49Z</time>
      </trkpt>
      <trkpt lat="49.03014" lon="7.77159">
        <ele>237.041</ele>
        <time>2020-05-24T14:35:41Z</time>
      </trkpt>
      <trkpt lat="49.03022" lon="7.7715">
        <ele>235.284</ele>
        <time>2020-05-24T14:35:47Z</time>
      </trkpt>
      <trkpt lat="49.0303" lon="7.77141">
        <ele>233.726</ele>
        <time>2020-05-24T14:35:53Z</time>
      </trkpt>
      <trkpt lat="49.03034" lon="7.77131">
        <ele>232.609</ele>
        <time>2020-05-24T14:35:58Z</time>
      </trkpt>
      <trkpt lat="49.03037" lon="7.77123">
        <ele>231.672</ele>
        <time>2020-05-24T14:36:04Z</time>
      </trkpt>
      <trkpt lat="49.0304" lon="7.77108">
        <ele>230.802</ele>
        <time>2020-05-24T14:36:15Z</time>
      </trkpt>
      <trkpt lat="49.03041" lon="7.77095">
        <ele>230.306</ele>
        <time>2020-05-24T14:36:21Z</time>
      </trkpt>
      <trkpt lat="49.0304" lon="7.77083">
        <ele>230.205</ele>
        <time>2020-05-24T14:36:32Z</time>
      </trkpt>
      <trkpt lat="49.03036" lon="7.7707">
        <ele>230.331</ele>
        <time>2020-05-24T14:36:44Z</time>
      </trkpt>
      <trkpt lat="49.03032" lon="7.77065">
        <ele>230.787</ele>
        <time>2020-05-24T14:36:49Z</time>
      </trkpt>
      <trkpt lat="49.03028" lon="7.77056">
        <ele>231.036</ele>
        <time>2020-05-24T14:37:00Z</time>
      </trkpt>
      <trkpt lat="49.0303" lon="7.77042">
        <ele>229.285</ele>
        <time>2020-05-24T14:37:22Z</time>
      </trkpt>
      <trkpt lat="49.03032" lon="7.7703">
        <ele>227.699</ele>
        <time>2020-05-24T14:37:33Z</time>
      </trkpt>
      <trkpt lat="49.03036" lon="7.77022">
        <ele>226.331</ele>
        <time>2020-05-24T14:37:39Z</time>
      </trkpt>
      <trkpt lat="49.0304" lon="7.77013">
        <ele>224.864</ele>
        <time>2020-05-24T14:37:44Z</time>
      </trkpt>
      <trkpt lat="49.03045" lon="7.77001">
        <ele>223.166</ele>
        <time>2020-05-24T14:37:50Z</time>
      </trkpt>
      <trkpt lat="49.03053" lon="7.76992">
        <ele>221.421</ele>
        <time>2020-05-24T14:37:56Z</time>
      </trkpt>
      <trkpt lat="49.03058" lon="7.76987">
        <ele>220.388</ele>
        <time>2020-05-24T14:38:02Z</time>
      </trkpt>
      <trkpt lat="49.03061" lon="7.76979">
        <ele>219.187</ele>
        <time>2020-05-24T14:38:08Z</time>
      </trkpt>
      <trkpt lat="49.03068" lon="7.76973">
        <ele>217.711</ele>
        <time>2020-05-24T14:38:14Z</time>
      </trkpt>
      <trkpt lat="49.0308" lon="7.76974">
        <ele>216.497</ele>
        <time>2020-05-24T14:38:24Z</time>
      </trkpt>
      <trkpt lat="49.03085" lon="7.76966">
        <ele>215.244</ele>
        <time>2020-05-24T14:38:29Z</time>
      </trkpt>
      <trkpt lat="49.03092" lon="7.76958">
        <ele>213.698</ele>
        <time>2020-05-24T14:38:35Z</time>
      </trkpt>
      <trkpt lat="49.03095" lon="7.76949">
        <ele>212.712</ele>
        <time>2020-05-24T14:38:41Z</time>
      </trkpt>
      <trkpt lat="49.03102" lon="7.76945">
        <ele>211.392</ele>
        <time>2020-05-24T14:38:51Z</time>
      </trkpt>
      <trkpt lat="49.03107" lon="7.76936">
        <ele>209.656</ele>
        <time>2020-05-24T14:39:02Z</time>
      </trkpt>
      <trkpt lat="49.0312" lon="7.7693">
        <ele>207.677</ele>
        <time>2020-05-24T14:39:30Z</time>
      </trkpt>
      <trkpt lat="49.03129" lon="7.76927">
        <ele>206.594</ele>
        <time>2020-05-24T14:39:36Z</time>
      </trkpt>
      <trkpt lat="49.03136" lon="7.76936">
        <ele>206.605</ele>
        <time>2020-05-24T14:39:47Z</time>
      </trkpt>
      <trkpt lat="49.03142" lon="7.76947">
        <ele>206.732</ele>
        <time>2020-05-24T14:39:52Z</time>
      </trkpt>
      <trkpt lat="49.03149" lon="7.76954">
        <ele>206.212</ele>
        <time>2020-05-24T14:39:57Z</time>
      </trkpt>
      <trkpt lat="49.03153" lon="7.76961">
        <ele>206.088</ele>
        <time>2020-05-24T14:40:02Z</time>
      </trkpt>
      <trkpt lat="49.03159" lon="7.76968">
        <ele>205.688</ele>
        <time>2020-05-24T14:40:08Z</time>
      </trkpt>
      <trkpt lat="49.03162" lon="7.76976">
        <ele>205.617</ele>
        <time>2020-05-24T14:40:13Z</time>
      </trkpt>
      <trkpt lat="49.03161" lon="7.76987">
        <ele>206.143</ele>
        <time>2020-05-24T14:40:19Z</time>
      </trkpt>
      <trkpt lat="49.03165" lon="7.77">
        <ele>206.22</ele>
        <time>2020-05-24T14:40:25Z</time>
      </trkpt>
      <trkpt lat="49.03168" lon="7.77011">
        <ele>205.969</ele>
        <time>2020-05-24T14:40:31Z</time>
      </trkpt>
      <trkpt lat="49.03166" lon="7.77019">
        <ele>206.098</ele>
        <time>2020-05-24T14:40:37Z</time>
      </trkpt>
      <trkpt lat="49.03163" lon="7.77026">
        <ele>206.447</ele>
        <time>2020-05-24T14:40:54Z</time>
      </trkpt>
    </trkseg>
  </trk>
</gpx>